<?xml version="1.0" encoding="UTF-8" standalone="no" ?>
<gpx xmlns="http://www.topografix.com/GPX/1/1" xmlns:xsi="http://www.w3.org/2001/XMLSchema-instance" xsi:schemaLocation="http://www.topografix.com/GPX/1/1 http://www.topografix.com/GPX/1/1/gpx.xsd" version="1.1" creator="VisuGPX - https://www.visugpx.com">
  <metadata>
    <name>parcours 2018</name>
    <desc><![CDATA[Parcours 2018 provisoire susceptible de légères modifs ou pas]]></desc>
  </metadata>
  <wpt lat="43.72435" lon="6.85932">
    <ele>906.6</ele>
    <name><![CDATA[]]></name>
    <desc><![CDATA[]]></desc>
  </wpt>
  <wpt lat="43.7228" lon="6.84326">
    <ele>1191</ele>
    <name><![CDATA[]]></name>
    <desc><![CDATA[]]></desc>
  </wpt>
  <wpt lat="43.69383" lon="6.81277">
    <ele>617</ele>
    <name><![CDATA[]]></name>
    <desc><![CDATA[]]></desc>
  </wpt>
  <wpt lat="43.6308" lon="6.84291">
    <ele>239.5</ele>
    <name><![CDATA[]]></name>
    <desc><![CDATA[]]></desc>
  </wpt>
  <wpt lat="43.53243" lon="6.86333">
    <ele>74</ele>
    <name><![CDATA[]]></name>
    <desc><![CDATA[]]></desc>
  </wpt>
  <trk>
    <name><![CDATA[8880604-TW 2018]]></name>
    <trkseg>
      <trkpt lat="43.69943" lon="6.84877">
        <ele>717</ele>
        <time>2018-09-10T10:25:18Z</time>
      </trkpt>
      <trkpt lat="43.6994" lon="6.84939">
        <ele>717</ele>
        <time>2018-09-10T10:26:18Z</time>
      </trkpt>
      <trkpt lat="43.69935" lon="6.84965">
        <ele>717</ele>
        <time>2018-09-10T10:27:18Z</time>
      </trkpt>
      <trkpt lat="43.69879" lon="6.85001">
        <ele>717</ele>
        <time>2018-09-10T10:28:18Z</time>
      </trkpt>
      <trkpt lat="43.69879" lon="6.85074">
        <ele>716</ele>
        <time>2018-09-10T10:29:18Z</time>
      </trkpt>
      <trkpt lat="43.69791" lon="6.85004">
        <ele>716</ele>
        <time>2018-09-10T10:30:18Z</time>
      </trkpt>
      <trkpt lat="43.69829" lon="6.84835">
        <ele>718</ele>
        <time>2018-09-10T10:31:18Z</time>
      </trkpt>
      <trkpt lat="43.69767" lon="6.8483">
        <ele>712</ele>
        <time>2018-09-10T10:32:18Z</time>
      </trkpt>
      <trkpt lat="43.69721" lon="6.84826">
        <ele>709</ele>
        <time>2018-09-10T10:33:18Z</time>
      </trkpt>
      <trkpt lat="43.69694" lon="6.84845">
        <ele>709</ele>
        <time>2018-09-10T10:34:18Z</time>
      </trkpt>
      <trkpt lat="43.69571" lon="6.84824">
        <ele>702</ele>
        <time>2018-09-10T10:35:18Z</time>
      </trkpt>
      <trkpt lat="43.69502" lon="6.84821">
        <ele>699</ele>
        <time>2018-09-10T10:36:18Z</time>
      </trkpt>
      <trkpt lat="43.69494" lon="6.84823">
        <ele>699</ele>
        <time>2018-09-10T10:37:18Z</time>
      </trkpt>
      <trkpt lat="43.69473" lon="6.84824">
        <ele>698</ele>
        <time>2018-09-10T10:38:18Z</time>
      </trkpt>
      <trkpt lat="43.69414" lon="6.84794">
        <ele>696</ele>
        <time>2018-09-10T10:39:18Z</time>
      </trkpt>
      <trkpt lat="43.69355" lon="6.84818">
        <ele>697</ele>
        <time>2018-09-10T10:40:18Z</time>
      </trkpt>
      <trkpt lat="43.69309" lon="6.8481">
        <ele>697</ele>
        <time>2018-09-10T10:41:18Z</time>
      </trkpt>
      <trkpt lat="43.69253" lon="6.84832">
        <ele>701</ele>
        <time>2018-09-10T10:42:18Z</time>
      </trkpt>
      <trkpt lat="43.69238" lon="6.84842">
        <ele>702</ele>
        <time>2018-09-10T10:43:18Z</time>
      </trkpt>
      <trkpt lat="43.69205" lon="6.8481">
        <ele>703</ele>
        <time>2018-09-10T10:44:18Z</time>
      </trkpt>
      <trkpt lat="43.69155" lon="6.84849">
        <ele>706</ele>
        <time>2018-09-10T10:45:18Z</time>
      </trkpt>
      <trkpt lat="43.69139" lon="6.84888">
        <ele>708</ele>
        <time>2018-09-10T10:46:18Z</time>
      </trkpt>
      <trkpt lat="43.69053" lon="6.84898">
        <ele>704</ele>
        <time>2018-09-10T10:47:18Z</time>
      </trkpt>
      <trkpt lat="43.6903" lon="6.84961">
        <ele>705</ele>
        <time>2018-09-10T10:48:18Z</time>
      </trkpt>
      <trkpt lat="43.69027" lon="6.85003">
        <ele>706</ele>
        <time>2018-09-10T10:49:18Z</time>
      </trkpt>
      <trkpt lat="43.69004" lon="6.85071">
        <ele>705</ele>
        <time>2018-09-10T10:50:18Z</time>
      </trkpt>
      <trkpt lat="43.68993" lon="6.8516">
        <ele>707</ele>
        <time>2018-09-10T10:51:18Z</time>
      </trkpt>
      <trkpt lat="43.69011" lon="6.8525">
        <ele>709</ele>
        <time>2018-09-10T10:52:18Z</time>
      </trkpt>
      <trkpt lat="43.6891" lon="6.85499">
        <ele>711</ele>
        <time>2018-09-10T10:53:18Z</time>
      </trkpt>
      <trkpt lat="43.68846" lon="6.85595">
        <ele>713</ele>
        <time>2018-09-10T10:54:18Z</time>
      </trkpt>
      <trkpt lat="43.68814" lon="6.85762">
        <ele>715</ele>
        <time>2018-09-10T10:55:18Z</time>
      </trkpt>
      <trkpt lat="43.68792" lon="6.85836">
        <ele>713</ele>
        <time>2018-09-10T10:56:18Z</time>
      </trkpt>
      <trkpt lat="43.68815" lon="6.8589">
        <ele>716</ele>
        <time>2018-09-10T10:57:18Z</time>
      </trkpt>
      <trkpt lat="43.68821" lon="6.85949">
        <ele>719</ele>
        <time>2018-09-10T10:58:18Z</time>
      </trkpt>
      <trkpt lat="43.68807" lon="6.85998">
        <ele>720</ele>
        <time>2018-09-10T10:59:18Z</time>
      </trkpt>
      <trkpt lat="43.68799" lon="6.86226">
        <ele>723</ele>
        <time>2018-09-10T11:00:18Z</time>
      </trkpt>
      <trkpt lat="43.68625" lon="6.86313">
        <ele>718</ele>
        <time>2018-09-10T11:01:18Z</time>
      </trkpt>
      <trkpt lat="43.68528" lon="6.86361">
        <ele>715</ele>
        <time>2018-09-10T11:02:18Z</time>
      </trkpt>
      <trkpt lat="43.68412" lon="6.86352">
        <ele>713</ele>
        <time>2018-09-10T11:03:18Z</time>
      </trkpt>
      <trkpt lat="43.6832" lon="6.86468">
        <ele>727</ele>
        <time>2018-09-10T11:04:18Z</time>
      </trkpt>
      <trkpt lat="43.68334" lon="6.86605">
        <ele>739</ele>
        <time>2018-09-10T11:05:18Z</time>
      </trkpt>
      <trkpt lat="43.68323" lon="6.86644">
        <ele>743</ele>
        <time>2018-09-10T11:06:18Z</time>
      </trkpt>
      <trkpt lat="43.68344" lon="6.86756">
        <ele>752</ele>
        <time>2018-09-10T11:07:18Z</time>
      </trkpt>
      <trkpt lat="43.68297" lon="6.86883">
        <ele>764</ele>
        <time>2018-09-10T11:08:18Z</time>
      </trkpt>
      <trkpt lat="43.68237" lon="6.86955">
        <ele>777</ele>
        <time>2018-09-10T11:09:18Z</time>
      </trkpt>
      <trkpt lat="43.68208" lon="6.86962">
        <ele>781</ele>
        <time>2018-09-10T11:10:18Z</time>
      </trkpt>
      <trkpt lat="43.68159" lon="6.87081">
        <ele>797</ele>
        <time>2018-09-10T11:11:18Z</time>
      </trkpt>
      <trkpt lat="43.68125" lon="6.8733">
        <ele>819</ele>
        <time>2018-09-10T11:12:18Z</time>
      </trkpt>
      <trkpt lat="43.68096" lon="6.8737">
        <ele>823</ele>
        <time>2018-09-10T11:13:18Z</time>
      </trkpt>
      <trkpt lat="43.68135" lon="6.87428">
        <ele>824</ele>
        <time>2018-09-10T11:14:18Z</time>
      </trkpt>
      <trkpt lat="43.68049" lon="6.87547">
        <ele>828</ele>
        <time>2018-09-10T11:15:18Z</time>
      </trkpt>
      <trkpt lat="43.68007" lon="6.87763">
        <ele>807</ele>
        <time>2018-09-10T11:16:18Z</time>
      </trkpt>
      <trkpt lat="43.68187" lon="6.87998">
        <ele>808</ele>
        <time>2018-09-10T11:17:18Z</time>
      </trkpt>
      <trkpt lat="43.68362" lon="6.8825">
        <ele>784</ele>
        <time>2018-09-10T11:18:18Z</time>
      </trkpt>
      <trkpt lat="43.6849" lon="6.88297">
        <ele>784</ele>
        <time>2018-09-10T11:19:18Z</time>
      </trkpt>
      <trkpt lat="43.68537" lon="6.88373">
        <ele>789</ele>
        <time>2018-09-10T11:20:18Z</time>
      </trkpt>
      <trkpt lat="43.68688" lon="6.8829">
        <ele>802</ele>
        <time>2018-09-10T11:21:18Z</time>
      </trkpt>
      <trkpt lat="43.6879" lon="6.88308">
        <ele>813</ele>
        <time>2018-09-10T11:22:18Z</time>
      </trkpt>
      <trkpt lat="43.68874" lon="6.88286">
        <ele>819</ele>
        <time>2018-09-10T11:23:18Z</time>
      </trkpt>
      <trkpt lat="43.68947" lon="6.88171">
        <ele>816</ele>
        <time>2018-09-10T11:24:18Z</time>
      </trkpt>
      <trkpt lat="43.69218" lon="6.8807">
        <ele>858</ele>
        <time>2018-09-10T11:25:18Z</time>
      </trkpt>
      <trkpt lat="43.69323" lon="6.8785">
        <ele>866</ele>
        <time>2018-09-10T11:26:18Z</time>
      </trkpt>
      <trkpt lat="43.69597" lon="6.87716">
        <ele>910</ele>
        <time>2018-09-10T11:27:18Z</time>
      </trkpt>
      <trkpt lat="43.69735" lon="6.87575">
        <ele>932</ele>
        <time>2018-09-10T11:28:18Z</time>
      </trkpt>
      <trkpt lat="43.69787" lon="6.87478">
        <ele>940</ele>
        <time>2018-09-10T11:29:18Z</time>
      </trkpt>
      <trkpt lat="43.69837" lon="6.87092">
        <ele>995</ele>
        <time>2018-09-10T11:30:18Z</time>
      </trkpt>
      <trkpt lat="43.70022" lon="6.86637">
        <ele>1027</ele>
        <time>2018-09-10T11:31:18Z</time>
      </trkpt>
      <trkpt lat="43.70184" lon="6.86529">
        <ele>1054</ele>
        <time>2018-09-10T11:32:18Z</time>
      </trkpt>
      <trkpt lat="43.70246" lon="6.86558">
        <ele>1067</ele>
        <time>2018-09-10T11:33:18Z</time>
      </trkpt>
      <trkpt lat="43.70262" lon="6.86832">
        <ele>1072</ele>
        <time>2018-09-10T11:34:18Z</time>
      </trkpt>
      <trkpt lat="43.70257" lon="6.86922">
        <ele>1068</ele>
        <time>2018-09-10T11:35:18Z</time>
      </trkpt>
      <trkpt lat="43.70322" lon="6.87175">
        <ele>1088</ele>
        <time>2018-09-10T11:36:18Z</time>
      </trkpt>
      <trkpt lat="43.70382" lon="6.87222">
        <ele>1097</ele>
        <time>2018-09-10T11:37:18Z</time>
      </trkpt>
      <trkpt lat="43.70319" lon="6.87677">
        <ele>1131</ele>
        <time>2018-09-10T11:38:18Z</time>
      </trkpt>
      <trkpt lat="43.70379" lon="6.87778">
        <ele>1143</ele>
        <time>2018-09-10T11:39:18Z</time>
      </trkpt>
      <trkpt lat="43.70374" lon="6.87814">
        <ele>1149</ele>
        <time>2018-09-10T11:40:18Z</time>
      </trkpt>
      <trkpt lat="43.70489" lon="6.87861">
        <ele>1147</ele>
        <time>2018-09-10T11:41:18Z</time>
      </trkpt>
      <trkpt lat="43.70504" lon="6.88019">
        <ele>1160</ele>
        <time>2018-09-10T11:42:18Z</time>
      </trkpt>
      <trkpt lat="43.70468" lon="6.88113">
        <ele>1168</ele>
        <time>2018-09-10T11:43:18Z</time>
      </trkpt>
      <trkpt lat="43.70473" lon="6.88207">
        <ele>1167</ele>
        <time>2018-09-10T11:44:18Z</time>
      </trkpt>
      <trkpt lat="43.7058" lon="6.88247">
        <ele>1157</ele>
        <time>2018-09-10T11:45:18Z</time>
      </trkpt>
      <trkpt lat="43.70611" lon="6.88106">
        <ele>1147</ele>
        <time>2018-09-10T11:46:18Z</time>
      </trkpt>
      <trkpt lat="43.70674" lon="6.87954">
        <ele>1127</ele>
        <time>2018-09-10T11:47:18Z</time>
      </trkpt>
      <trkpt lat="43.7064" lon="6.87817">
        <ele>1114</ele>
        <time>2018-09-10T11:48:18Z</time>
      </trkpt>
      <trkpt lat="43.70658" lon="6.87727">
        <ele>1095</ele>
        <time>2018-09-10T11:49:18Z</time>
      </trkpt>
      <trkpt lat="43.70734" lon="6.87431">
        <ele>1087</ele>
        <time>2018-09-10T11:50:18Z</time>
      </trkpt>
      <trkpt lat="43.70857" lon="6.87287">
        <ele>1095</ele>
        <time>2018-09-10T11:51:18Z</time>
      </trkpt>
      <trkpt lat="43.7094" lon="6.87085">
        <ele>1086</ele>
        <time>2018-09-10T11:52:18Z</time>
      </trkpt>
      <trkpt lat="43.71104" lon="6.8693">
        <ele>1079</ele>
        <time>2018-09-10T11:53:18Z</time>
      </trkpt>
      <trkpt lat="43.71091" lon="6.86893">
        <ele>1071</ele>
        <time>2018-09-10T11:54:18Z</time>
      </trkpt>
      <trkpt lat="43.71232" lon="6.86756">
        <ele>1057</ele>
        <time>2018-09-10T11:55:18Z</time>
      </trkpt>
      <trkpt lat="43.71295" lon="6.86623">
        <ele>1055</ele>
        <time>2018-09-10T11:56:18Z</time>
      </trkpt>
      <trkpt lat="43.71305" lon="6.86533">
        <ele>1049</ele>
        <time>2018-09-10T11:57:18Z</time>
      </trkpt>
      <trkpt lat="43.71275" lon="6.86432">
        <ele>1045</ele>
        <time>2018-09-10T11:58:18Z</time>
      </trkpt>
      <trkpt lat="43.71382" lon="6.86294">
        <ele>1037</ele>
        <time>2018-09-10T11:59:18Z</time>
      </trkpt>
      <trkpt lat="43.71424" lon="6.86215">
        <ele>1015</ele>
        <time>2018-09-10T12:00:18Z</time>
      </trkpt>
      <trkpt lat="43.71588" lon="6.8632">
        <ele>976</ele>
        <time>2018-09-10T12:01:18Z</time>
      </trkpt>
      <trkpt lat="43.71596" lon="6.86206">
        <ele>940</ele>
        <time>2018-09-10T12:02:18Z</time>
      </trkpt>
      <trkpt lat="43.71704" lon="6.86201">
        <ele>913</ele>
        <time>2018-09-10T12:03:18Z</time>
      </trkpt>
      <trkpt lat="43.71801" lon="6.8625">
        <ele>920</ele>
        <time>2018-09-10T12:04:18Z</time>
      </trkpt>
      <trkpt lat="43.71873" lon="6.86191">
        <ele>901</ele>
        <time>2018-09-10T12:05:18Z</time>
      </trkpt>
      <trkpt lat="43.72184" lon="6.86111">
        <ele>883</ele>
        <time>2018-09-10T12:06:18Z</time>
      </trkpt>
      <trkpt lat="43.72172" lon="6.86074">
        <ele>881</ele>
        <time>2018-09-10T12:07:18Z</time>
      </trkpt>
      <trkpt lat="43.72189" lon="6.86061">
        <ele>885</ele>
        <time>2018-09-10T12:08:18Z</time>
      </trkpt>
      <trkpt lat="43.7215" lon="6.86016">
        <ele>886</ele>
        <time>2018-09-10T12:09:18Z</time>
      </trkpt>
      <trkpt lat="43.72123" lon="6.85995">
        <ele>887</ele>
        <time>2018-09-10T12:10:18Z</time>
      </trkpt>
      <trkpt lat="43.72136" lon="6.85979">
        <ele>889</ele>
        <time>2018-09-10T12:11:18Z</time>
      </trkpt>
      <trkpt lat="43.72194" lon="6.85989">
        <ele>893</ele>
        <time>2018-09-10T12:12:18Z</time>
      </trkpt>
      <trkpt lat="43.72231" lon="6.86025">
        <ele>893</ele>
        <time>2018-09-10T12:13:18Z</time>
      </trkpt>
      <trkpt lat="43.72328" lon="6.86034">
        <ele>900</ele>
        <time>2018-09-10T12:14:18Z</time>
      </trkpt>
      <trkpt lat="43.72376" lon="6.85963">
        <ele>909</ele>
        <time>2018-09-10T12:15:18Z</time>
      </trkpt>
      <trkpt lat="43.72436" lon="6.85934">
        <ele>915</ele>
        <time>2018-09-10T12:16:18Z</time>
      </trkpt>
      <trkpt lat="43.72369" lon="6.85884">
        <ele>921</ele>
        <time>2018-09-10T12:17:18Z</time>
      </trkpt>
      <trkpt lat="43.7239" lon="6.85864">
        <ele>923</ele>
        <time>2018-09-10T12:18:18Z</time>
      </trkpt>
      <trkpt lat="43.72434" lon="6.85875">
        <ele>926</ele>
        <time>2018-09-10T12:19:18Z</time>
      </trkpt>
      <trkpt lat="43.72463" lon="6.85899">
        <ele>927</ele>
        <time>2018-09-10T12:20:18Z</time>
      </trkpt>
      <trkpt lat="43.72527" lon="6.8593">
        <ele>932</ele>
        <time>2018-09-10T12:21:18Z</time>
      </trkpt>
      <trkpt lat="43.7263" lon="6.85949">
        <ele>949</ele>
        <time>2018-09-10T12:22:18Z</time>
      </trkpt>
      <trkpt lat="43.72556" lon="6.85893">
        <ele>951</ele>
        <time>2018-09-10T12:23:18Z</time>
      </trkpt>
      <trkpt lat="43.72464" lon="6.85699">
        <ele>980</ele>
        <time>2018-09-10T12:24:18Z</time>
      </trkpt>
      <trkpt lat="43.72577" lon="6.85783">
        <ele>995</ele>
        <time>2018-09-10T12:25:18Z</time>
      </trkpt>
      <trkpt lat="43.72689" lon="6.85785">
        <ele>1007</ele>
        <time>2018-09-10T12:26:18Z</time>
      </trkpt>
      <trkpt lat="43.72631" lon="6.85752">
        <ele>1013</ele>
        <time>2018-09-10T12:27:18Z</time>
      </trkpt>
      <trkpt lat="43.72567" lon="6.85681">
        <ele>1024</ele>
        <time>2018-09-10T12:28:18Z</time>
      </trkpt>
      <trkpt lat="43.72522" lon="6.85557">
        <ele>1036</ele>
        <time>2018-09-10T12:29:18Z</time>
      </trkpt>
      <trkpt lat="43.72594" lon="6.85658">
        <ele>1040</ele>
        <time>2018-09-10T12:30:18Z</time>
      </trkpt>
      <trkpt lat="43.7266" lon="6.85681">
        <ele>1049</ele>
        <time>2018-09-10T12:31:18Z</time>
      </trkpt>
      <trkpt lat="43.72609" lon="6.85629">
        <ele>1054</ele>
        <time>2018-09-10T12:32:18Z</time>
      </trkpt>
      <trkpt lat="43.72565" lon="6.85513">
        <ele>1065</ele>
        <time>2018-09-10T12:33:18Z</time>
      </trkpt>
      <trkpt lat="43.72558" lon="6.85362">
        <ele>1078</ele>
        <time>2018-09-10T12:34:18Z</time>
      </trkpt>
      <trkpt lat="43.72557" lon="6.85197">
        <ele>1086</ele>
        <time>2018-09-10T12:35:18Z</time>
      </trkpt>
      <trkpt lat="43.72578" lon="6.85075">
        <ele>1105</ele>
        <time>2018-09-10T12:36:18Z</time>
      </trkpt>
      <trkpt lat="43.72479" lon="6.85067">
        <ele>1104</ele>
        <time>2018-09-10T12:37:18Z</time>
      </trkpt>
      <trkpt lat="43.72397" lon="6.85107">
        <ele>1098</ele>
        <time>2018-09-10T12:38:18Z</time>
      </trkpt>
      <trkpt lat="43.72344" lon="6.851">
        <ele>1102</ele>
        <time>2018-09-10T12:39:18Z</time>
      </trkpt>
      <trkpt lat="43.72306" lon="6.85075">
        <ele>1103</ele>
        <time>2018-09-10T12:40:18Z</time>
      </trkpt>
      <trkpt lat="43.72251" lon="6.84885">
        <ele>1143</ele>
        <time>2018-09-10T12:41:18Z</time>
      </trkpt>
      <trkpt lat="43.72244" lon="6.84557">
        <ele>1177</ele>
        <time>2018-09-10T12:42:18Z</time>
      </trkpt>
      <trkpt lat="43.72272" lon="6.84369">
        <ele>1192</ele>
        <time>2018-09-10T12:43:18Z</time>
      </trkpt>
      <trkpt lat="43.72324" lon="6.84074">
        <ele>1218</ele>
        <time>2018-09-10T12:44:18Z</time>
      </trkpt>
      <trkpt lat="43.72342" lon="6.83801">
        <ele>1234</ele>
        <time>2018-09-10T12:45:18Z</time>
      </trkpt>
      <trkpt lat="43.72372" lon="6.83674">
        <ele>1240</ele>
        <time>2018-09-10T12:46:18Z</time>
      </trkpt>
      <trkpt lat="43.72361" lon="6.83782">
        <ele>1246</ele>
        <time>2018-09-10T12:47:18Z</time>
      </trkpt>
      <trkpt lat="43.72419" lon="6.84124">
        <ele>1281</ele>
        <time>2018-09-10T12:48:18Z</time>
      </trkpt>
      <trkpt lat="43.72415" lon="6.84259">
        <ele>1285</ele>
        <time>2018-09-10T12:49:18Z</time>
      </trkpt>
      <trkpt lat="43.72454" lon="6.84587">
        <ele>1304</ele>
        <time>2018-09-10T12:50:18Z</time>
      </trkpt>
      <trkpt lat="43.72482" lon="6.84628">
        <ele>1304</ele>
        <time>2018-09-10T12:51:18Z</time>
      </trkpt>
      <trkpt lat="43.7251" lon="6.84597">
        <ele>1322</ele>
        <time>2018-09-10T12:52:18Z</time>
      </trkpt>
      <trkpt lat="43.72604" lon="6.84567">
        <ele>1328</ele>
        <time>2018-09-10T12:53:18Z</time>
      </trkpt>
      <trkpt lat="43.72623" lon="6.84519">
        <ele>1343</ele>
        <time>2018-09-10T12:54:18Z</time>
      </trkpt>
      <trkpt lat="43.72668" lon="6.84491">
        <ele>1345</ele>
        <time>2018-09-10T12:55:18Z</time>
      </trkpt>
      <trkpt lat="43.72789" lon="6.845">
        <ele>1349</ele>
        <time>2018-09-10T12:56:18Z</time>
      </trkpt>
      <trkpt lat="43.72858" lon="6.84592">
        <ele>1344</ele>
        <time>2018-09-10T12:57:18Z</time>
      </trkpt>
      <trkpt lat="43.7291" lon="6.84713">
        <ele>1348</ele>
        <time>2018-09-10T12:58:18Z</time>
      </trkpt>
      <trkpt lat="43.72924" lon="6.84709">
        <ele>1354</ele>
        <time>2018-09-10T12:59:18Z</time>
      </trkpt>
      <trkpt lat="43.72913" lon="6.84538">
        <ele>1374</ele>
        <time>2018-09-10T13:00:18Z</time>
      </trkpt>
      <trkpt lat="43.72875" lon="6.84449">
        <ele>1380</ele>
        <time>2018-09-10T13:01:18Z</time>
      </trkpt>
      <trkpt lat="43.72875" lon="6.84269">
        <ele>1404</ele>
        <time>2018-09-10T13:02:18Z</time>
      </trkpt>
      <trkpt lat="43.72845" lon="6.84127">
        <ele>1411</ele>
        <time>2018-09-10T13:03:18Z</time>
      </trkpt>
      <trkpt lat="43.72729" lon="6.83821">
        <ele>1419</ele>
        <time>2018-09-10T13:04:18Z</time>
      </trkpt>
      <trkpt lat="43.72662" lon="6.83752">
        <ele>1419</ele>
        <time>2018-09-10T13:05:18Z</time>
      </trkpt>
      <trkpt lat="43.72555" lon="6.83808">
        <ele>1376</ele>
        <time>2018-09-10T13:06:18Z</time>
      </trkpt>
      <trkpt lat="43.7255" lon="6.84041">
        <ele>1377</ele>
        <time>2018-09-10T13:07:18Z</time>
      </trkpt>
      <trkpt lat="43.72502" lon="6.84264">
        <ele>1346</ele>
        <time>2018-09-10T13:08:18Z</time>
      </trkpt>
      <trkpt lat="43.72413" lon="6.83755">
        <ele>1279</ele>
        <time>2018-09-10T13:09:18Z</time>
      </trkpt>
      <trkpt lat="43.72457" lon="6.83401">
        <ele>1243</ele>
        <time>2018-09-10T13:10:18Z</time>
      </trkpt>
      <trkpt lat="43.72355" lon="6.83581">
        <ele>1214</ele>
        <time>2018-09-10T13:11:18Z</time>
      </trkpt>
      <trkpt lat="43.72373" lon="6.83264">
        <ele>1181</ele>
        <time>2018-09-10T13:12:18Z</time>
      </trkpt>
      <trkpt lat="43.72309" lon="6.8306">
        <ele>1140</ele>
        <time>2018-09-10T13:13:18Z</time>
      </trkpt>
      <trkpt lat="43.72291" lon="6.83313">
        <ele>1142</ele>
        <time>2018-09-10T13:14:18Z</time>
      </trkpt>
      <trkpt lat="43.72124" lon="6.83835">
        <ele>1096</ele>
        <time>2018-09-10T13:15:18Z</time>
      </trkpt>
      <trkpt lat="43.72144" lon="6.8402">
        <ele>1103</ele>
        <time>2018-09-10T13:16:18Z</time>
      </trkpt>
      <trkpt lat="43.72097" lon="6.84343">
        <ele>1089</ele>
        <time>2018-09-10T13:17:18Z</time>
      </trkpt>
      <trkpt lat="43.7213" lon="6.84869">
        <ele>1078</ele>
        <time>2018-09-10T13:18:18Z</time>
      </trkpt>
      <trkpt lat="43.72061" lon="6.84877">
        <ele>1038</ele>
        <time>2018-09-10T13:19:18Z</time>
      </trkpt>
      <trkpt lat="43.72098" lon="6.85062">
        <ele>1013</ele>
        <time>2018-09-10T13:20:18Z</time>
      </trkpt>
      <trkpt lat="43.72174" lon="6.85253">
        <ele>989</ele>
        <time>2018-09-10T13:21:18Z</time>
      </trkpt>
      <trkpt lat="43.72262" lon="6.85384">
        <ele>980</ele>
        <time>2018-09-10T13:22:18Z</time>
      </trkpt>
      <trkpt lat="43.7231" lon="6.85416">
        <ele>983</ele>
        <time>2018-09-10T13:23:18Z</time>
      </trkpt>
      <trkpt lat="43.72339" lon="6.85419">
        <ele>989</ele>
        <time>2018-09-10T13:24:18Z</time>
      </trkpt>
      <trkpt lat="43.72389" lon="6.85399">
        <ele>1003</ele>
        <time>2018-09-10T13:25:18Z</time>
      </trkpt>
      <trkpt lat="43.72303" lon="6.85569">
        <ele>961</ele>
        <time>2018-09-10T13:26:18Z</time>
      </trkpt>
      <trkpt lat="43.72474" lon="6.85876">
        <ele>936</ele>
        <time>2018-09-10T13:27:18Z</time>
      </trkpt>
      <trkpt lat="43.72336" lon="6.85804">
        <ele>930</ele>
        <time>2018-09-10T13:28:18Z</time>
      </trkpt>
      <trkpt lat="43.72285" lon="6.85935">
        <ele>911</ele>
        <time>2018-09-10T13:29:18Z</time>
      </trkpt>
      <trkpt lat="43.72235" lon="6.85973">
        <ele>901</ele>
        <time>2018-09-10T13:30:18Z</time>
      </trkpt>
      <trkpt lat="43.72151" lon="6.85885">
        <ele>903</ele>
        <time>2018-09-10T13:31:18Z</time>
      </trkpt>
      <trkpt lat="43.72093" lon="6.85911">
        <ele>896</ele>
        <time>2018-09-10T13:32:18Z</time>
      </trkpt>
      <trkpt lat="43.72089" lon="6.8598">
        <ele>887</ele>
        <time>2018-09-10T13:33:18Z</time>
      </trkpt>
      <trkpt lat="43.72063" lon="6.86025">
        <ele>879</ele>
        <time>2018-09-10T13:34:18Z</time>
      </trkpt>
      <trkpt lat="43.72002" lon="6.86013">
        <ele>875</ele>
        <time>2018-09-10T13:35:18Z</time>
      </trkpt>
      <trkpt lat="43.71993" lon="6.86077">
        <ele>873</ele>
        <time>2018-09-10T13:36:18Z</time>
      </trkpt>
      <trkpt lat="43.71964" lon="6.86127">
        <ele>886</ele>
        <time>2018-09-10T13:37:18Z</time>
      </trkpt>
      <trkpt lat="43.71871" lon="6.86142">
        <ele>889</ele>
        <time>2018-09-10T13:38:18Z</time>
      </trkpt>
      <trkpt lat="43.71808" lon="6.86199">
        <ele>904</ele>
        <time>2018-09-10T13:39:18Z</time>
      </trkpt>
      <trkpt lat="43.71694" lon="6.86189">
        <ele>912</ele>
        <time>2018-09-10T13:40:18Z</time>
      </trkpt>
      <trkpt lat="43.7184" lon="6.86258">
        <ele>922</ele>
        <time>2018-09-10T13:41:18Z</time>
      </trkpt>
      <trkpt lat="43.71996" lon="6.86295">
        <ele>937</ele>
        <time>2018-09-10T13:42:18Z</time>
      </trkpt>
      <trkpt lat="43.72145" lon="6.86293">
        <ele>932</ele>
        <time>2018-09-10T13:43:18Z</time>
      </trkpt>
      <trkpt lat="43.72229" lon="6.86346">
        <ele>939</ele>
        <time>2018-09-10T13:44:18Z</time>
      </trkpt>
      <trkpt lat="43.72354" lon="6.86344">
        <ele>927</ele>
        <time>2018-09-10T13:45:18Z</time>
      </trkpt>
      <trkpt lat="43.72448" lon="6.8639">
        <ele>928</ele>
        <time>2018-09-10T13:46:18Z</time>
      </trkpt>
      <trkpt lat="43.72445" lon="6.86478">
        <ele>949</ele>
        <time>2018-09-10T13:47:18Z</time>
      </trkpt>
      <trkpt lat="43.72458" lon="6.86566">
        <ele>964</ele>
        <time>2018-09-10T13:48:18Z</time>
      </trkpt>
      <trkpt lat="43.72413" lon="6.86485">
        <ele>957</ele>
        <time>2018-09-10T13:49:18Z</time>
      </trkpt>
      <trkpt lat="43.72327" lon="6.86483">
        <ele>973</ele>
        <time>2018-09-10T13:50:18Z</time>
      </trkpt>
      <trkpt lat="43.72117" lon="6.86475">
        <ele>997</ele>
        <time>2018-09-10T13:51:18Z</time>
      </trkpt>
      <trkpt lat="43.7204" lon="6.86471">
        <ele>1000</ele>
        <time>2018-09-10T13:52:18Z</time>
      </trkpt>
      <trkpt lat="43.71935" lon="6.86502">
        <ele>1007</ele>
        <time>2018-09-10T13:53:18Z</time>
      </trkpt>
      <trkpt lat="43.71838" lon="6.8651">
        <ele>1007</ele>
        <time>2018-09-10T13:54:18Z</time>
      </trkpt>
      <trkpt lat="43.71695" lon="6.86494">
        <ele>1018</ele>
        <time>2018-09-10T13:55:18Z</time>
      </trkpt>
      <trkpt lat="43.71575" lon="6.86451">
        <ele>1026</ele>
        <time>2018-09-10T13:56:18Z</time>
      </trkpt>
      <trkpt lat="43.71453" lon="6.86339">
        <ele>1025</ele>
        <time>2018-09-10T13:57:18Z</time>
      </trkpt>
      <trkpt lat="43.71378" lon="6.86263">
        <ele>1035</ele>
        <time>2018-09-10T13:58:18Z</time>
      </trkpt>
      <trkpt lat="43.71301" lon="6.86305">
        <ele>1051</ele>
        <time>2018-09-10T13:59:18Z</time>
      </trkpt>
      <trkpt lat="43.71248" lon="6.86383">
        <ele>1048</ele>
        <time>2018-09-10T14:00:18Z</time>
      </trkpt>
      <trkpt lat="43.71206" lon="6.86367">
        <ele>1053</ele>
        <time>2018-09-10T14:01:18Z</time>
      </trkpt>
      <trkpt lat="43.71138" lon="6.8632">
        <ele>1065</ele>
        <time>2018-09-10T14:02:18Z</time>
      </trkpt>
      <trkpt lat="43.71123" lon="6.86215">
        <ele>1079</ele>
        <time>2018-09-10T14:03:18Z</time>
      </trkpt>
      <trkpt lat="43.71141" lon="6.86179">
        <ele>1081</ele>
        <time>2018-09-10T14:04:18Z</time>
      </trkpt>
      <trkpt lat="43.71091" lon="6.86096">
        <ele>1076</ele>
        <time>2018-09-10T14:05:18Z</time>
      </trkpt>
      <trkpt lat="43.71063" lon="6.86071">
        <ele>1066</ele>
        <time>2018-09-10T14:06:18Z</time>
      </trkpt>
      <trkpt lat="43.71102" lon="6.85865">
        <ele>1060</ele>
        <time>2018-09-10T14:07:18Z</time>
      </trkpt>
      <trkpt lat="43.71131" lon="6.85656">
        <ele>1059</ele>
        <time>2018-09-10T14:08:18Z</time>
      </trkpt>
      <trkpt lat="43.71211" lon="6.85602">
        <ele>1070</ele>
        <time>2018-09-10T14:09:18Z</time>
      </trkpt>
      <trkpt lat="43.71211" lon="6.85511">
        <ele>1063</ele>
        <time>2018-09-10T14:10:18Z</time>
      </trkpt>
      <trkpt lat="43.71196" lon="6.85212">
        <ele>1050</ele>
        <time>2018-09-10T14:11:18Z</time>
      </trkpt>
      <trkpt lat="43.71099" lon="6.84815">
        <ele>1000</ele>
        <time>2018-09-10T14:12:18Z</time>
      </trkpt>
      <trkpt lat="43.71084" lon="6.84847">
        <ele>1007</ele>
        <time>2018-09-10T14:13:18Z</time>
      </trkpt>
      <trkpt lat="43.71011" lon="6.84692">
        <ele>984</ele>
        <time>2018-09-10T14:14:18Z</time>
      </trkpt>
      <trkpt lat="43.70992" lon="6.84627">
        <ele>977</ele>
        <time>2018-09-10T14:15:18Z</time>
      </trkpt>
      <trkpt lat="43.70977" lon="6.84642">
        <ele>969</ele>
        <time>2018-09-10T14:16:18Z</time>
      </trkpt>
      <trkpt lat="43.70951" lon="6.84486">
        <ele>949</ele>
        <time>2018-09-10T14:17:18Z</time>
      </trkpt>
      <trkpt lat="43.70927" lon="6.84512">
        <ele>940</ele>
        <time>2018-09-10T14:18:18Z</time>
      </trkpt>
      <trkpt lat="43.70893" lon="6.84338">
        <ele>908</ele>
        <time>2018-09-10T14:19:18Z</time>
      </trkpt>
      <trkpt lat="43.70909" lon="6.84144">
        <ele>901</ele>
        <time>2018-09-10T14:20:18Z</time>
      </trkpt>
      <trkpt lat="43.70875" lon="6.84198">
        <ele>888</ele>
        <time>2018-09-10T14:21:18Z</time>
      </trkpt>
      <trkpt lat="43.70856" lon="6.84166">
        <ele>879</ele>
        <time>2018-09-10T14:22:18Z</time>
      </trkpt>
      <trkpt lat="43.70782" lon="6.84308">
        <ele>854</ele>
        <time>2018-09-10T14:23:18Z</time>
      </trkpt>
      <trkpt lat="43.70746" lon="6.84578">
        <ele>833</ele>
        <time>2018-09-10T14:24:18Z</time>
      </trkpt>
      <trkpt lat="43.70685" lon="6.84661">
        <ele>813</ele>
        <time>2018-09-10T14:25:18Z</time>
      </trkpt>
      <trkpt lat="43.70672" lon="6.84612">
        <ele>804</ele>
        <time>2018-09-10T14:26:18Z</time>
      </trkpt>
      <trkpt lat="43.70603" lon="6.84607">
        <ele>781</ele>
        <time>2018-09-10T14:27:18Z</time>
      </trkpt>
      <trkpt lat="43.7052" lon="6.84655">
        <ele>761</ele>
        <time>2018-09-10T14:28:18Z</time>
      </trkpt>
      <trkpt lat="43.70471" lon="6.84757">
        <ele>759</ele>
        <time>2018-09-10T14:29:18Z</time>
      </trkpt>
      <trkpt lat="43.70434" lon="6.84739">
        <ele>749</ele>
        <time>2018-09-10T14:30:18Z</time>
      </trkpt>
      <trkpt lat="43.70366" lon="6.84725">
        <ele>739</ele>
        <time>2018-09-10T14:31:18Z</time>
      </trkpt>
      <trkpt lat="43.70327" lon="6.8466">
        <ele>733</ele>
        <time>2018-09-10T14:32:18Z</time>
      </trkpt>
      <trkpt lat="43.70314" lon="6.84476">
        <ele>723</ele>
        <time>2018-09-10T14:33:18Z</time>
      </trkpt>
      <trkpt lat="43.70314" lon="6.84393">
        <ele>720</ele>
        <time>2018-09-10T14:34:18Z</time>
      </trkpt>
      <trkpt lat="43.70298" lon="6.84324">
        <ele>716</ele>
        <time>2018-09-10T14:35:18Z</time>
      </trkpt>
      <trkpt lat="43.70236" lon="6.84176">
        <ele>707</ele>
        <time>2018-09-10T14:36:18Z</time>
      </trkpt>
      <trkpt lat="43.70183" lon="6.84019">
        <ele>706</ele>
        <time>2018-09-10T14:37:18Z</time>
      </trkpt>
      <trkpt lat="43.70136" lon="6.84024">
        <ele>704</ele>
        <time>2018-09-10T14:38:18Z</time>
      </trkpt>
      <trkpt lat="43.69967" lon="6.8408">
        <ele>694</ele>
        <time>2018-09-10T14:39:18Z</time>
      </trkpt>
      <trkpt lat="43.698" lon="6.8415">
        <ele>689</ele>
        <time>2018-09-10T14:40:18Z</time>
      </trkpt>
      <trkpt lat="43.69809" lon="6.8407">
        <ele>690</ele>
        <time>2018-09-10T14:41:18Z</time>
      </trkpt>
      <trkpt lat="43.69848" lon="6.83955">
        <ele>693</ele>
        <time>2018-09-10T14:42:18Z</time>
      </trkpt>
      <trkpt lat="43.69894" lon="6.838">
        <ele>700</ele>
        <time>2018-09-10T14:43:18Z</time>
      </trkpt>
      <trkpt lat="43.69928" lon="6.83704">
        <ele>707</ele>
        <time>2018-09-10T14:44:18Z</time>
      </trkpt>
      <trkpt lat="43.69908" lon="6.83678">
        <ele>709</ele>
        <time>2018-09-10T14:45:18Z</time>
      </trkpt>
      <trkpt lat="43.69801" lon="6.83598">
        <ele>708</ele>
        <time>2018-09-10T14:46:18Z</time>
      </trkpt>
      <trkpt lat="43.69495" lon="6.83555">
        <ele>706</ele>
        <time>2018-09-10T14:47:18Z</time>
      </trkpt>
      <trkpt lat="43.69405" lon="6.83654">
        <ele>690</ele>
        <time>2018-09-10T14:48:18Z</time>
      </trkpt>
      <trkpt lat="43.69333" lon="6.83724">
        <ele>677</ele>
        <time>2018-09-10T14:49:18Z</time>
      </trkpt>
      <trkpt lat="43.69271" lon="6.83581">
        <ele>673</ele>
        <time>2018-09-10T14:50:18Z</time>
      </trkpt>
      <trkpt lat="43.69142" lon="6.83353">
        <ele>665</ele>
        <time>2018-09-10T14:51:18Z</time>
      </trkpt>
      <trkpt lat="43.69124" lon="6.83018">
        <ele>659</ele>
        <time>2018-09-10T14:52:18Z</time>
      </trkpt>
      <trkpt lat="43.69142" lon="6.82826">
        <ele>654</ele>
        <time>2018-09-10T14:53:18Z</time>
      </trkpt>
      <trkpt lat="43.6914" lon="6.82715">
        <ele>650</ele>
        <time>2018-09-10T14:54:18Z</time>
      </trkpt>
      <trkpt lat="43.69093" lon="6.82668">
        <ele>649</ele>
        <time>2018-09-10T14:55:18Z</time>
      </trkpt>
      <trkpt lat="43.69004" lon="6.82415">
        <ele>648</ele>
        <time>2018-09-10T14:56:18Z</time>
      </trkpt>
      <trkpt lat="43.69015" lon="6.82274">
        <ele>646</ele>
        <time>2018-09-10T14:57:18Z</time>
      </trkpt>
      <trkpt lat="43.68973" lon="6.82217">
        <ele>646</ele>
        <time>2018-09-10T14:58:18Z</time>
      </trkpt>
      <trkpt lat="43.69067" lon="6.81949">
        <ele>633</ele>
        <time>2018-09-10T14:59:18Z</time>
      </trkpt>
      <trkpt lat="43.68949" lon="6.81589">
        <ele>631</ele>
        <time>2018-09-10T15:00:18Z</time>
      </trkpt>
      <trkpt lat="43.6891" lon="6.8148">
        <ele>630</ele>
        <time>2018-09-10T15:01:18Z</time>
      </trkpt>
      <trkpt lat="43.69033" lon="6.81538">
        <ele>625</ele>
        <time>2018-09-10T15:02:18Z</time>
      </trkpt>
      <trkpt lat="43.69145" lon="6.81365">
        <ele>621</ele>
        <time>2018-09-10T15:03:18Z</time>
      </trkpt>
      <trkpt lat="43.69269" lon="6.81474">
        <ele>618</ele>
        <time>2018-09-10T15:04:18Z</time>
      </trkpt>
      <trkpt lat="43.69345" lon="6.81403">
        <ele>624</ele>
        <time>2018-09-10T15:05:18Z</time>
      </trkpt>
      <trkpt lat="43.69388" lon="6.81281">
        <ele>624</ele>
        <time>2018-09-10T15:06:18Z</time>
      </trkpt>
      <trkpt lat="43.69323" lon="6.8121">
        <ele>611</ele>
        <time>2018-09-10T15:07:18Z</time>
      </trkpt>
      <trkpt lat="43.6927" lon="6.81127">
        <ele>611</ele>
        <time>2018-09-10T15:08:18Z</time>
      </trkpt>
      <trkpt lat="43.69317" lon="6.80946">
        <ele>608</ele>
        <time>2018-09-10T15:09:18Z</time>
      </trkpt>
      <trkpt lat="43.69401" lon="6.80863">
        <ele>606</ele>
        <time>2018-09-10T15:10:18Z</time>
      </trkpt>
      <trkpt lat="43.69333" lon="6.80683">
        <ele>599</ele>
        <time>2018-09-10T15:11:18Z</time>
      </trkpt>
      <trkpt lat="43.69362" lon="6.80538">
        <ele>604</ele>
        <time>2018-09-10T15:12:18Z</time>
      </trkpt>
      <trkpt lat="43.69414" lon="6.80452">
        <ele>599</ele>
        <time>2018-09-10T15:13:18Z</time>
      </trkpt>
      <trkpt lat="43.69422" lon="6.80362">
        <ele>606</ele>
        <time>2018-09-10T15:14:18Z</time>
      </trkpt>
      <trkpt lat="43.69513" lon="6.79983">
        <ele>610</ele>
        <time>2018-09-10T15:15:18Z</time>
      </trkpt>
      <trkpt lat="43.69573" lon="6.79835">
        <ele>609</ele>
        <time>2018-09-10T15:16:18Z</time>
      </trkpt>
      <trkpt lat="43.69594" lon="6.79654">
        <ele>600</ele>
        <time>2018-09-10T15:17:18Z</time>
      </trkpt>
      <trkpt lat="43.69476" lon="6.79301">
        <ele>603</ele>
        <time>2018-09-10T15:18:18Z</time>
      </trkpt>
      <trkpt lat="43.6933" lon="6.79131">
        <ele>597</ele>
        <time>2018-09-10T15:19:18Z</time>
      </trkpt>
      <trkpt lat="43.69218" lon="6.79127">
        <ele>610</ele>
        <time>2018-09-10T15:20:18Z</time>
      </trkpt>
      <trkpt lat="43.69153" lon="6.7907">
        <ele>613</ele>
        <time>2018-09-10T15:21:18Z</time>
      </trkpt>
      <trkpt lat="43.69268" lon="6.78821">
        <ele>596</ele>
        <time>2018-09-10T15:22:18Z</time>
      </trkpt>
      <trkpt lat="43.69247" lon="6.78666">
        <ele>603</ele>
        <time>2018-09-10T15:23:18Z</time>
      </trkpt>
      <trkpt lat="43.69265" lon="6.78521">
        <ele>584</ele>
        <time>2018-09-10T15:24:18Z</time>
      </trkpt>
      <trkpt lat="43.69203" lon="6.78453">
        <ele>603</ele>
        <time>2018-09-10T15:25:18Z</time>
      </trkpt>
      <trkpt lat="43.69109" lon="6.78229">
        <ele>613</ele>
        <time>2018-09-10T15:26:18Z</time>
      </trkpt>
      <trkpt lat="43.69192" lon="6.7807">
        <ele>590</ele>
        <time>2018-09-10T15:27:18Z</time>
      </trkpt>
      <trkpt lat="43.69163" lon="6.7772">
        <ele>591</ele>
        <time>2018-09-10T15:28:18Z</time>
      </trkpt>
      <trkpt lat="43.6902" lon="6.77327">
        <ele>588</ele>
        <time>2018-09-10T15:29:18Z</time>
      </trkpt>
      <trkpt lat="43.68968" lon="6.77316">
        <ele>592</ele>
        <time>2018-09-10T15:30:18Z</time>
      </trkpt>
      <trkpt lat="43.6891" lon="6.77262">
        <ele>566</ele>
        <time>2018-09-10T15:31:18Z</time>
      </trkpt>
      <trkpt lat="43.68879" lon="6.77312">
        <ele>605</ele>
        <time>2018-09-10T15:32:18Z</time>
      </trkpt>
      <trkpt lat="43.68733" lon="6.77114">
        <ele>611</ele>
        <time>2018-09-10T15:33:18Z</time>
      </trkpt>
      <trkpt lat="43.68618" lon="6.77157">
        <ele>626</ele>
        <time>2018-09-10T15:34:18Z</time>
      </trkpt>
      <trkpt lat="43.68433" lon="6.7706">
        <ele>582</ele>
        <time>2018-09-10T15:35:18Z</time>
      </trkpt>
      <trkpt lat="43.68365" lon="6.77067">
        <ele>613</ele>
        <time>2018-09-10T15:36:18Z</time>
      </trkpt>
      <trkpt lat="43.68334" lon="6.76941">
        <ele>572</ele>
        <time>2018-09-10T15:37:18Z</time>
      </trkpt>
      <trkpt lat="43.68265" lon="6.76932">
        <ele>598</ele>
        <time>2018-09-10T15:38:18Z</time>
      </trkpt>
      <trkpt lat="43.68219" lon="6.76868">
        <ele>580</ele>
        <time>2018-09-10T15:39:18Z</time>
      </trkpt>
      <trkpt lat="43.6812" lon="6.76868">
        <ele>603</ele>
        <time>2018-09-10T15:40:18Z</time>
      </trkpt>
      <trkpt lat="43.68033" lon="6.76767">
        <ele>578</ele>
        <time>2018-09-10T15:41:18Z</time>
      </trkpt>
      <trkpt lat="43.67929" lon="6.76825">
        <ele>611</ele>
        <time>2018-09-10T15:42:18Z</time>
      </trkpt>
      <trkpt lat="43.67702" lon="6.76839">
        <ele>597</ele>
        <time>2018-09-10T15:43:18Z</time>
      </trkpt>
      <trkpt lat="43.67678" lon="6.76829">
        <ele>595</ele>
        <time>2018-09-10T15:44:18Z</time>
      </trkpt>
      <trkpt lat="43.67535" lon="6.77038">
        <ele>601</ele>
        <time>2018-09-10T15:45:18Z</time>
      </trkpt>
      <trkpt lat="43.67449" lon="6.77107">
        <ele>582</ele>
        <time>2018-09-10T15:46:18Z</time>
      </trkpt>
      <trkpt lat="43.67415" lon="6.77208">
        <ele>582</ele>
        <time>2018-09-10T15:47:18Z</time>
      </trkpt>
      <trkpt lat="43.67245" lon="6.77319">
        <ele>549</ele>
        <time>2018-09-10T15:48:18Z</time>
      </trkpt>
      <trkpt lat="43.67122" lon="6.77514">
        <ele>529</ele>
        <time>2018-09-10T15:49:18Z</time>
      </trkpt>
      <trkpt lat="43.67111" lon="6.77768">
        <ele>533</ele>
        <time>2018-09-10T15:50:18Z</time>
      </trkpt>
      <trkpt lat="43.67054" lon="6.77956">
        <ele>525</ele>
        <time>2018-09-10T15:51:18Z</time>
      </trkpt>
      <trkpt lat="43.6708" lon="6.78114">
        <ele>526</ele>
        <time>2018-09-10T15:52:18Z</time>
      </trkpt>
      <trkpt lat="43.67124" lon="6.78205">
        <ele>532</ele>
        <time>2018-09-10T15:53:18Z</time>
      </trkpt>
      <trkpt lat="43.67163" lon="6.78411">
        <ele>532</ele>
        <time>2018-09-10T15:54:18Z</time>
      </trkpt>
      <trkpt lat="43.6719" lon="6.78557">
        <ele>529</ele>
        <time>2018-09-10T15:55:18Z</time>
      </trkpt>
      <trkpt lat="43.67242" lon="6.78685">
        <ele>532</ele>
        <time>2018-09-10T15:56:18Z</time>
      </trkpt>
      <trkpt lat="43.67247" lon="6.78855">
        <ele>532</ele>
        <time>2018-09-10T15:57:18Z</time>
      </trkpt>
      <trkpt lat="43.67339" lon="6.79049">
        <ele>533</ele>
        <time>2018-09-10T15:58:18Z</time>
      </trkpt>
      <trkpt lat="43.67199" lon="6.79164">
        <ele>520</ele>
        <time>2018-09-10T15:59:18Z</time>
      </trkpt>
      <trkpt lat="43.67181" lon="6.79243">
        <ele>517</ele>
        <time>2018-09-10T16:00:18Z</time>
      </trkpt>
      <trkpt lat="43.67098" lon="6.79243">
        <ele>511</ele>
        <time>2018-09-10T16:01:18Z</time>
      </trkpt>
      <trkpt lat="43.67084" lon="6.79571">
        <ele>510</ele>
        <time>2018-09-10T16:02:18Z</time>
      </trkpt>
      <trkpt lat="43.67101" lon="6.79603">
        <ele>511</ele>
        <time>2018-09-10T16:03:18Z</time>
      </trkpt>
      <trkpt lat="43.67084" lon="6.79728">
        <ele>509</ele>
        <time>2018-09-10T16:04:18Z</time>
      </trkpt>
      <trkpt lat="43.6703" lon="6.79774">
        <ele>505</ele>
        <time>2018-09-10T16:05:18Z</time>
      </trkpt>
      <trkpt lat="43.67025" lon="6.79882">
        <ele>503</ele>
        <time>2018-09-10T16:06:18Z</time>
      </trkpt>
      <trkpt lat="43.67034" lon="6.79978">
        <ele>506</ele>
        <time>2018-09-10T16:07:18Z</time>
      </trkpt>
      <trkpt lat="43.67077" lon="6.80048">
        <ele>508</ele>
        <time>2018-09-10T16:08:18Z</time>
      </trkpt>
      <trkpt lat="43.67056" lon="6.80137">
        <ele>512</ele>
        <time>2018-09-10T16:09:18Z</time>
      </trkpt>
      <trkpt lat="43.67081" lon="6.80244">
        <ele>512</ele>
        <time>2018-09-10T16:10:18Z</time>
      </trkpt>
      <trkpt lat="43.67072" lon="6.80452">
        <ele>518</ele>
        <time>2018-09-10T16:11:18Z</time>
      </trkpt>
      <trkpt lat="43.67095" lon="6.80518">
        <ele>520</ele>
        <time>2018-09-10T16:12:18Z</time>
      </trkpt>
      <trkpt lat="43.67074" lon="6.80549">
        <ele>519</ele>
        <time>2018-09-10T16:13:18Z</time>
      </trkpt>
      <trkpt lat="43.6706" lon="6.80717">
        <ele>524</ele>
        <time>2018-09-10T16:14:18Z</time>
      </trkpt>
      <trkpt lat="43.67076" lon="6.80774">
        <ele>523</ele>
        <time>2018-09-10T16:15:18Z</time>
      </trkpt>
      <trkpt lat="43.6705" lon="6.80816">
        <ele>525</ele>
        <time>2018-09-10T16:16:18Z</time>
      </trkpt>
      <trkpt lat="43.67029" lon="6.8085">
        <ele>526</ele>
        <time>2018-09-10T16:17:18Z</time>
      </trkpt>
      <trkpt lat="43.67007" lon="6.80872">
        <ele>527</ele>
        <time>2018-09-10T16:18:18Z</time>
      </trkpt>
      <trkpt lat="43.66993" lon="6.80895">
        <ele>528</ele>
        <time>2018-09-10T16:19:18Z</time>
      </trkpt>
      <trkpt lat="43.66996" lon="6.80925">
        <ele>528</ele>
        <time>2018-09-10T16:20:18Z</time>
      </trkpt>
      <trkpt lat="43.67035" lon="6.81015">
        <ele>529</ele>
        <time>2018-09-10T16:21:18Z</time>
      </trkpt>
      <trkpt lat="43.67008" lon="6.81201">
        <ele>531</ele>
        <time>2018-09-10T16:22:18Z</time>
      </trkpt>
      <trkpt lat="43.67068" lon="6.81428">
        <ele>536</ele>
        <time>2018-09-10T16:23:18Z</time>
      </trkpt>
      <trkpt lat="43.6707" lon="6.81594">
        <ele>539</ele>
        <time>2018-09-10T16:24:18Z</time>
      </trkpt>
      <trkpt lat="43.67013" lon="6.81612">
        <ele>540</ele>
        <time>2018-09-10T16:25:18Z</time>
      </trkpt>
      <trkpt lat="43.6694" lon="6.81814">
        <ele>544</ele>
        <time>2018-09-10T16:26:18Z</time>
      </trkpt>
      <trkpt lat="43.6693" lon="6.81921">
        <ele>547</ele>
        <time>2018-09-10T16:27:18Z</time>
      </trkpt>
      <trkpt lat="43.66865" lon="6.82054">
        <ele>551</ele>
        <time>2018-09-10T16:28:18Z</time>
      </trkpt>
      <trkpt lat="43.6687" lon="6.82141">
        <ele>549</ele>
        <time>2018-09-10T16:29:18Z</time>
      </trkpt>
      <trkpt lat="43.66808" lon="6.82444">
        <ele>553</ele>
        <time>2018-09-10T16:30:18Z</time>
      </trkpt>
      <trkpt lat="43.66742" lon="6.82552">
        <ele>557</ele>
        <time>2018-09-10T16:31:18Z</time>
      </trkpt>
      <trkpt lat="43.6674" lon="6.82637">
        <ele>556</ele>
        <time>2018-09-10T16:32:18Z</time>
      </trkpt>
      <trkpt lat="43.66693" lon="6.82776">
        <ele>558</ele>
        <time>2018-09-10T16:33:18Z</time>
      </trkpt>
      <trkpt lat="43.66711" lon="6.82848">
        <ele>561</ele>
        <time>2018-09-10T16:34:18Z</time>
      </trkpt>
      <trkpt lat="43.66657" lon="6.8298">
        <ele>562</ele>
        <time>2018-09-10T16:35:18Z</time>
      </trkpt>
      <trkpt lat="43.66505" lon="6.83093">
        <ele>567</ele>
        <time>2018-09-10T16:36:18Z</time>
      </trkpt>
      <trkpt lat="43.66484" lon="6.83299">
        <ele>570</ele>
        <time>2018-09-10T16:37:18Z</time>
      </trkpt>
      <trkpt lat="43.66424" lon="6.8327">
        <ele>572</ele>
        <time>2018-09-10T16:38:18Z</time>
      </trkpt>
      <trkpt lat="43.66301" lon="6.837">
        <ele>580</ele>
        <time>2018-09-10T16:39:18Z</time>
      </trkpt>
      <trkpt lat="43.66186" lon="6.83638">
        <ele>591</ele>
        <time>2018-09-10T16:40:18Z</time>
      </trkpt>
      <trkpt lat="43.66249" lon="6.82732">
        <ele>649</ele>
        <time>2018-09-10T16:41:18Z</time>
      </trkpt>
      <trkpt lat="43.66202" lon="6.82818">
        <ele>642</ele>
        <time>2018-09-10T16:42:18Z</time>
      </trkpt>
      <trkpt lat="43.6609" lon="6.82984">
        <ele>636</ele>
        <time>2018-09-10T16:43:18Z</time>
      </trkpt>
      <trkpt lat="43.66014" lon="6.83202">
        <ele>619</ele>
        <time>2018-09-10T16:44:18Z</time>
      </trkpt>
      <trkpt lat="43.65886" lon="6.83352">
        <ele>607</ele>
        <time>2018-09-10T16:45:18Z</time>
      </trkpt>
      <trkpt lat="43.65764" lon="6.83258">
        <ele>602</ele>
        <time>2018-09-10T16:46:18Z</time>
      </trkpt>
      <trkpt lat="43.65722" lon="6.83147">
        <ele>595</ele>
        <time>2018-09-10T16:47:18Z</time>
      </trkpt>
      <trkpt lat="43.65623" lon="6.83248">
        <ele>598</ele>
        <time>2018-09-10T16:48:18Z</time>
      </trkpt>
      <trkpt lat="43.65584" lon="6.83318">
        <ele>599</ele>
        <time>2018-09-10T16:49:18Z</time>
      </trkpt>
      <trkpt lat="43.65534" lon="6.83282">
        <ele>593</ele>
        <time>2018-09-10T16:50:18Z</time>
      </trkpt>
      <trkpt lat="43.65584" lon="6.83217">
        <ele>592</ele>
        <time>2018-09-10T16:51:18Z</time>
      </trkpt>
      <trkpt lat="43.65563" lon="6.83174">
        <ele>583</ele>
        <time>2018-09-10T16:52:18Z</time>
      </trkpt>
      <trkpt lat="43.65545" lon="6.83116">
        <ele>570</ele>
        <time>2018-09-10T16:53:18Z</time>
      </trkpt>
      <trkpt lat="43.65531" lon="6.83072">
        <ele>560</ele>
        <time>2018-09-10T16:54:18Z</time>
      </trkpt>
      <trkpt lat="43.65362" lon="6.83228">
        <ele>553</ele>
        <time>2018-09-10T16:55:18Z</time>
      </trkpt>
      <trkpt lat="43.65231" lon="6.83314">
        <ele>542</ele>
        <time>2018-09-10T16:56:18Z</time>
      </trkpt>
      <trkpt lat="43.65174" lon="6.83358">
        <ele>540</ele>
        <time>2018-09-10T16:57:18Z</time>
      </trkpt>
      <trkpt lat="43.65122" lon="6.8335">
        <ele>534</ele>
        <time>2018-09-10T16:58:18Z</time>
      </trkpt>
      <trkpt lat="43.65064" lon="6.83318">
        <ele>525</ele>
        <time>2018-09-10T16:59:18Z</time>
      </trkpt>
      <trkpt lat="43.65061" lon="6.83246">
        <ele>519</ele>
        <time>2018-09-10T17:00:18Z</time>
      </trkpt>
      <trkpt lat="43.65048" lon="6.83098">
        <ele>511</ele>
        <time>2018-09-10T17:01:18Z</time>
      </trkpt>
      <trkpt lat="43.65106" lon="6.83029">
        <ele>505</ele>
        <time>2018-09-10T17:02:18Z</time>
      </trkpt>
      <trkpt lat="43.65028" lon="6.82953">
        <ele>500</ele>
        <time>2018-09-10T17:03:18Z</time>
      </trkpt>
      <trkpt lat="43.6503" lon="6.82885">
        <ele>491</ele>
        <time>2018-09-10T17:04:18Z</time>
      </trkpt>
      <trkpt lat="43.64957" lon="6.82784">
        <ele>479</ele>
        <time>2018-09-10T17:05:18Z</time>
      </trkpt>
      <trkpt lat="43.64988" lon="6.82721">
        <ele>473</ele>
        <time>2018-09-10T17:06:18Z</time>
      </trkpt>
      <trkpt lat="43.64985" lon="6.82706">
        <ele>472</ele>
        <time>2018-09-10T17:07:18Z</time>
      </trkpt>
      <trkpt lat="43.64946" lon="6.82714">
        <ele>470</ele>
        <time>2018-09-10T17:08:18Z</time>
      </trkpt>
      <trkpt lat="43.64924" lon="6.82633">
        <ele>461</ele>
        <time>2018-09-10T17:09:18Z</time>
      </trkpt>
      <trkpt lat="43.64898" lon="6.82603">
        <ele>457</ele>
        <time>2018-09-10T17:10:18Z</time>
      </trkpt>
      <trkpt lat="43.64867" lon="6.82457">
        <ele>450</ele>
        <time>2018-09-10T17:11:18Z</time>
      </trkpt>
      <trkpt lat="43.64807" lon="6.82296">
        <ele>450</ele>
        <time>2018-09-10T17:12:18Z</time>
      </trkpt>
      <trkpt lat="43.64757" lon="6.82403">
        <ele>445</ele>
        <time>2018-09-10T17:13:18Z</time>
      </trkpt>
      <trkpt lat="43.64659" lon="6.82466">
        <ele>442</ele>
        <time>2018-09-10T17:14:18Z</time>
      </trkpt>
      <trkpt lat="43.64616" lon="6.825">
        <ele>442</ele>
        <time>2018-09-10T17:15:18Z</time>
      </trkpt>
      <trkpt lat="43.64504" lon="6.82642">
        <ele>437</ele>
        <time>2018-09-10T17:16:18Z</time>
      </trkpt>
      <trkpt lat="43.64396" lon="6.82808">
        <ele>438</ele>
        <time>2018-09-10T17:17:18Z</time>
      </trkpt>
      <trkpt lat="43.64375" lon="6.82748">
        <ele>434</ele>
        <time>2018-09-10T17:18:18Z</time>
      </trkpt>
      <trkpt lat="43.64271" lon="6.8283">
        <ele>434</ele>
        <time>2018-09-10T17:19:18Z</time>
      </trkpt>
      <trkpt lat="43.6417" lon="6.82903">
        <ele>429</ele>
        <time>2018-09-10T17:20:18Z</time>
      </trkpt>
      <trkpt lat="43.64078" lon="6.82893">
        <ele>428</ele>
        <time>2018-09-10T17:21:18Z</time>
      </trkpt>
      <trkpt lat="43.6401" lon="6.82826">
        <ele>422</ele>
        <time>2018-09-10T17:22:18Z</time>
      </trkpt>
      <trkpt lat="43.6394" lon="6.82749">
        <ele>421</ele>
        <time>2018-09-10T17:23:18Z</time>
      </trkpt>
      <trkpt lat="43.63893" lon="6.82732">
        <ele>422</ele>
        <time>2018-09-10T17:24:18Z</time>
      </trkpt>
      <trkpt lat="43.63826" lon="6.82727">
        <ele>423</ele>
        <time>2018-09-10T17:25:18Z</time>
      </trkpt>
      <trkpt lat="43.6373" lon="6.82682">
        <ele>411</ele>
        <time>2018-09-10T17:26:18Z</time>
      </trkpt>
      <trkpt lat="43.63612" lon="6.82714">
        <ele>402</ele>
        <time>2018-09-10T17:27:18Z</time>
      </trkpt>
      <trkpt lat="43.63553" lon="6.82762">
        <ele>397</ele>
        <time>2018-09-10T17:28:18Z</time>
      </trkpt>
      <trkpt lat="43.63486" lon="6.8282">
        <ele>388</ele>
        <time>2018-09-10T17:29:18Z</time>
      </trkpt>
      <trkpt lat="43.63463" lon="6.82759">
        <ele>381</ele>
        <time>2018-09-10T17:30:18Z</time>
      </trkpt>
      <trkpt lat="43.63401" lon="6.82764">
        <ele>377</ele>
        <time>2018-09-10T17:31:18Z</time>
      </trkpt>
      <trkpt lat="43.63286" lon="6.82941">
        <ele>380</ele>
        <time>2018-09-10T17:32:18Z</time>
      </trkpt>
      <trkpt lat="43.63275" lon="6.83006">
        <ele>382</ele>
        <time>2018-09-10T17:33:18Z</time>
      </trkpt>
      <trkpt lat="43.63256" lon="6.83002">
        <ele>382</ele>
        <time>2018-09-10T17:34:18Z</time>
      </trkpt>
      <trkpt lat="43.63108" lon="6.83112">
        <ele>375</ele>
        <time>2018-09-10T17:35:18Z</time>
      </trkpt>
      <trkpt lat="43.63046" lon="6.83058">
        <ele>368</ele>
        <time>2018-09-10T17:36:18Z</time>
      </trkpt>
      <trkpt lat="43.62946" lon="6.82904">
        <ele>346</ele>
        <time>2018-09-10T17:37:18Z</time>
      </trkpt>
      <trkpt lat="43.62956" lon="6.82758">
        <ele>349</ele>
        <time>2018-09-10T17:38:18Z</time>
      </trkpt>
      <trkpt lat="43.62931" lon="6.82706">
        <ele>335</ele>
        <time>2018-09-10T17:39:18Z</time>
      </trkpt>
      <trkpt lat="43.62913" lon="6.82733">
        <ele>331</ele>
        <time>2018-09-10T17:40:18Z</time>
      </trkpt>
      <trkpt lat="43.62888" lon="6.82729">
        <ele>318</ele>
        <time>2018-09-10T17:41:18Z</time>
      </trkpt>
      <trkpt lat="43.62882" lon="6.82762">
        <ele>318</ele>
        <time>2018-09-10T17:42:18Z</time>
      </trkpt>
      <trkpt lat="43.62854" lon="6.82761">
        <ele>304</ele>
        <time>2018-09-10T17:43:18Z</time>
      </trkpt>
      <trkpt lat="43.6284" lon="6.8279">
        <ele>297</ele>
        <time>2018-09-10T17:44:18Z</time>
      </trkpt>
      <trkpt lat="43.62841" lon="6.82853">
        <ele>298</ele>
        <time>2018-09-10T17:45:18Z</time>
      </trkpt>
      <trkpt lat="43.62818" lon="6.82883">
        <ele>286</ele>
        <time>2018-09-10T17:46:18Z</time>
      </trkpt>
      <trkpt lat="43.62825" lon="6.83065">
        <ele>275</ele>
        <time>2018-09-10T17:47:18Z</time>
      </trkpt>
      <trkpt lat="43.62789" lon="6.83068">
        <ele>260</ele>
        <time>2018-09-10T17:48:18Z</time>
      </trkpt>
      <trkpt lat="43.62775" lon="6.83159">
        <ele>245</ele>
        <time>2018-09-10T17:49:18Z</time>
      </trkpt>
      <trkpt lat="43.62781" lon="6.8334">
        <ele>233</ele>
        <time>2018-09-10T17:50:18Z</time>
      </trkpt>
      <trkpt lat="43.62814" lon="6.83407">
        <ele>231</ele>
        <time>2018-09-10T17:51:18Z</time>
      </trkpt>
      <trkpt lat="43.63049" lon="6.83642">
        <ele>236</ele>
        <time>2018-09-10T17:52:18Z</time>
      </trkpt>
      <trkpt lat="43.6314" lon="6.83765">
        <ele>233</ele>
        <time>2018-09-10T17:53:18Z</time>
      </trkpt>
      <trkpt lat="43.63195" lon="6.83826">
        <ele>235</ele>
        <time>2018-09-10T17:54:18Z</time>
      </trkpt>
      <trkpt lat="43.63284" lon="6.83985">
        <ele>239</ele>
        <time>2018-09-10T17:55:18Z</time>
      </trkpt>
      <trkpt lat="43.63258" lon="6.84071">
        <ele>231</ele>
        <time>2018-09-10T17:56:18Z</time>
      </trkpt>
      <trkpt lat="43.6331" lon="6.84165">
        <ele>241</ele>
        <time>2018-09-10T17:57:18Z</time>
      </trkpt>
      <trkpt lat="43.63179" lon="6.84191">
        <ele>234</ele>
        <time>2018-09-10T17:58:18Z</time>
      </trkpt>
      <trkpt lat="43.63122" lon="6.84237">
        <ele>240</ele>
        <time>2018-09-10T17:59:18Z</time>
      </trkpt>
      <trkpt lat="43.63088" lon="6.84191">
        <ele>231</ele>
        <time>2018-09-10T18:00:18Z</time>
      </trkpt>
      <trkpt lat="43.63077" lon="6.84295">
        <ele>243</ele>
        <time>2018-09-10T18:01:18Z</time>
      </trkpt>
      <trkpt lat="43.63041" lon="6.84382">
        <ele>243</ele>
        <time>2018-09-10T18:02:18Z</time>
      </trkpt>
      <trkpt lat="43.63175" lon="6.84518">
        <ele>235</ele>
        <time>2018-09-10T18:03:18Z</time>
      </trkpt>
      <trkpt lat="43.63246" lon="6.84626">
        <ele>236</ele>
        <time>2018-09-10T18:04:18Z</time>
      </trkpt>
      <trkpt lat="43.63186" lon="6.84738">
        <ele>232</ele>
        <time>2018-09-10T18:05:18Z</time>
      </trkpt>
      <trkpt lat="43.63303" lon="6.84987">
        <ele>236</ele>
        <time>2018-09-10T18:06:18Z</time>
      </trkpt>
      <trkpt lat="43.63233" lon="6.84987">
        <ele>232</ele>
        <time>2018-09-10T18:07:18Z</time>
      </trkpt>
      <trkpt lat="43.63191" lon="6.8494">
        <ele>231</ele>
        <time>2018-09-10T18:08:18Z</time>
      </trkpt>
      <trkpt lat="43.63115" lon="6.84854">
        <ele>224</ele>
        <time>2018-09-10T18:09:18Z</time>
      </trkpt>
      <trkpt lat="43.63021" lon="6.84835">
        <ele>215</ele>
        <time>2018-09-10T18:10:18Z</time>
      </trkpt>
      <trkpt lat="43.62888" lon="6.84958">
        <ele>218</ele>
        <time>2018-09-10T18:11:18Z</time>
      </trkpt>
      <trkpt lat="43.62815" lon="6.85164">
        <ele>232</ele>
        <time>2018-09-10T18:12:18Z</time>
      </trkpt>
      <trkpt lat="43.62802" lon="6.85315">
        <ele>245</ele>
        <time>2018-09-10T18:13:18Z</time>
      </trkpt>
      <trkpt lat="43.62636" lon="6.85502">
        <ele>240</ele>
        <time>2018-09-10T18:14:18Z</time>
      </trkpt>
      <trkpt lat="43.62607" lon="6.85448">
        <ele>229</ele>
        <time>2018-09-10T18:15:18Z</time>
      </trkpt>
      <trkpt lat="43.62581" lon="6.85397">
        <ele>220</ele>
        <time>2018-09-10T18:16:18Z</time>
      </trkpt>
      <trkpt lat="43.62555" lon="6.85325">
        <ele>205</ele>
        <time>2018-09-10T18:17:18Z</time>
      </trkpt>
      <trkpt lat="43.62521" lon="6.85289">
        <ele>192</ele>
        <time>2018-09-10T18:18:18Z</time>
      </trkpt>
      <trkpt lat="43.62471" lon="6.85354">
        <ele>193</ele>
        <time>2018-09-10T18:19:18Z</time>
      </trkpt>
      <trkpt lat="43.62453" lon="6.85455">
        <ele>196</ele>
        <time>2018-09-10T18:20:18Z</time>
      </trkpt>
      <trkpt lat="43.62471" lon="6.85488">
        <ele>200</ele>
        <time>2018-09-10T18:21:18Z</time>
      </trkpt>
      <trkpt lat="43.62398" lon="6.85527">
        <ele>198</ele>
        <time>2018-09-10T18:22:18Z</time>
      </trkpt>
      <trkpt lat="43.62375" lon="6.85509">
        <ele>200</ele>
        <time>2018-09-10T18:23:18Z</time>
      </trkpt>
      <trkpt lat="43.62338" lon="6.85361">
        <ele>174</ele>
        <time>2018-09-10T18:24:18Z</time>
      </trkpt>
      <trkpt lat="43.62215" lon="6.85293">
        <ele>173</ele>
        <time>2018-09-10T18:25:18Z</time>
      </trkpt>
      <trkpt lat="43.62158" lon="6.85156">
        <ele>157</ele>
        <time>2018-09-10T18:26:18Z</time>
      </trkpt>
      <trkpt lat="43.62111" lon="6.85235">
        <ele>162</ele>
        <time>2018-09-10T18:27:18Z</time>
      </trkpt>
      <trkpt lat="43.62027" lon="6.85213">
        <ele>167</ele>
        <time>2018-09-10T18:28:18Z</time>
      </trkpt>
      <trkpt lat="43.61967" lon="6.85076">
        <ele>150</ele>
        <time>2018-09-10T18:29:18Z</time>
      </trkpt>
      <trkpt lat="43.61894" lon="6.85069">
        <ele>152</ele>
        <time>2018-09-10T18:30:18Z</time>
      </trkpt>
      <trkpt lat="43.61868" lon="6.85008">
        <ele>139</ele>
        <time>2018-09-10T18:31:18Z</time>
      </trkpt>
      <trkpt lat="43.61722" lon="6.85019">
        <ele>138</ele>
        <time>2018-09-10T18:32:18Z</time>
      </trkpt>
      <trkpt lat="43.61604" lon="6.84936">
        <ele>124</ele>
        <time>2018-09-10T18:33:18Z</time>
      </trkpt>
      <trkpt lat="43.61505" lon="6.84925">
        <ele>128</ele>
        <time>2018-09-10T18:34:18Z</time>
      </trkpt>
      <trkpt lat="43.61486" lon="6.84915">
        <ele>133</ele>
        <time>2018-09-10T18:35:18Z</time>
      </trkpt>
      <trkpt lat="43.61462" lon="6.84792">
        <ele>130</ele>
        <time>2018-09-10T18:36:18Z</time>
      </trkpt>
      <trkpt lat="43.61475" lon="6.84698">
        <ele>109</ele>
        <time>2018-09-10T18:37:18Z</time>
      </trkpt>
      <trkpt lat="43.61462" lon="6.84651">
        <ele>104</ele>
        <time>2018-09-10T18:38:18Z</time>
      </trkpt>
      <trkpt lat="43.61381" lon="6.84586">
        <ele>99</ele>
        <time>2018-09-10T18:39:18Z</time>
      </trkpt>
      <trkpt lat="43.61355" lon="6.84503">
        <ele>90</ele>
        <time>2018-09-10T18:40:18Z</time>
      </trkpt>
      <trkpt lat="43.61308" lon="6.84464">
        <ele>83</ele>
        <time>2018-09-10T18:41:18Z</time>
      </trkpt>
      <trkpt lat="43.61292" lon="6.84395">
        <ele>85</ele>
        <time>2018-09-10T18:42:18Z</time>
      </trkpt>
      <trkpt lat="43.61193" lon="6.84428">
        <ele>85</ele>
        <time>2018-09-10T18:43:18Z</time>
      </trkpt>
      <trkpt lat="43.61065" lon="6.84515">
        <ele>72</ele>
        <time>2018-09-10T18:44:18Z</time>
      </trkpt>
      <trkpt lat="43.60977" lon="6.84479">
        <ele>79</ele>
        <time>2018-09-10T18:45:18Z</time>
      </trkpt>
      <trkpt lat="43.6091" lon="6.84512">
        <ele>74</ele>
        <time>2018-09-10T18:46:18Z</time>
      </trkpt>
      <trkpt lat="43.60729" lon="6.84559">
        <ele>77</ele>
        <time>2018-09-10T18:47:18Z</time>
      </trkpt>
      <trkpt lat="43.60572" lon="6.84418">
        <ele>85</ele>
        <time>2018-09-10T18:48:18Z</time>
      </trkpt>
      <trkpt lat="43.60518" lon="6.84461">
        <ele>94</ele>
        <time>2018-09-10T18:49:18Z</time>
      </trkpt>
      <trkpt lat="43.60457" lon="6.8432">
        <ele>88</ele>
        <time>2018-09-10T18:50:18Z</time>
      </trkpt>
      <trkpt lat="43.60457" lon="6.84252">
        <ele>82</ele>
        <time>2018-09-10T18:51:18Z</time>
      </trkpt>
      <trkpt lat="43.60298" lon="6.84223">
        <ele>95</ele>
        <time>2018-09-10T18:52:18Z</time>
      </trkpt>
      <trkpt lat="43.60209" lon="6.84249">
        <ele>99</ele>
        <time>2018-09-10T18:53:18Z</time>
      </trkpt>
      <trkpt lat="43.60127" lon="6.84232">
        <ele>87</ele>
        <time>2018-09-10T18:54:18Z</time>
      </trkpt>
      <trkpt lat="43.60135" lon="6.84328">
        <ele>97</ele>
        <time>2018-09-10T18:55:18Z</time>
      </trkpt>
      <trkpt lat="43.60098" lon="6.84385">
        <ele>95</ele>
        <time>2018-09-10T18:56:18Z</time>
      </trkpt>
      <trkpt lat="43.60109" lon="6.84479">
        <ele>94</ele>
        <time>2018-09-10T18:57:18Z</time>
      </trkpt>
      <trkpt lat="43.60063" lon="6.84492">
        <ele>90</ele>
        <time>2018-09-10T18:58:18Z</time>
      </trkpt>
      <trkpt lat="43.59995" lon="6.84447">
        <ele>102</ele>
        <time>2018-09-10T18:59:18Z</time>
      </trkpt>
      <trkpt lat="43.5994" lon="6.8436">
        <ele>113</ele>
        <time>2018-09-10T19:00:18Z</time>
      </trkpt>
      <trkpt lat="43.59913" lon="6.84268">
        <ele>127</ele>
        <time>2018-09-10T19:01:18Z</time>
      </trkpt>
      <trkpt lat="43.59861" lon="6.84169">
        <ele>145</ele>
        <time>2018-09-10T19:02:18Z</time>
      </trkpt>
      <trkpt lat="43.59844" lon="6.84114">
        <ele>151</ele>
        <time>2018-09-10T19:03:18Z</time>
      </trkpt>
      <trkpt lat="43.59793" lon="6.8402">
        <ele>168</ele>
        <time>2018-09-10T19:04:18Z</time>
      </trkpt>
      <trkpt lat="43.59766" lon="6.83952">
        <ele>168</ele>
        <time>2018-09-10T19:05:18Z</time>
      </trkpt>
      <trkpt lat="43.59717" lon="6.83955">
        <ele>176</ele>
        <time>2018-09-10T19:06:18Z</time>
      </trkpt>
      <trkpt lat="43.59658" lon="6.84011">
        <ele>197</ele>
        <time>2018-09-10T19:07:18Z</time>
      </trkpt>
      <trkpt lat="43.59619" lon="6.84052">
        <ele>207</ele>
        <time>2018-09-10T19:08:18Z</time>
      </trkpt>
      <trkpt lat="43.5957" lon="6.8407">
        <ele>209</ele>
        <time>2018-09-10T19:09:18Z</time>
      </trkpt>
      <trkpt lat="43.59519" lon="6.84103">
        <ele>219</ele>
        <time>2018-09-10T19:10:18Z</time>
      </trkpt>
      <trkpt lat="43.59411" lon="6.84152">
        <ele>230</ele>
        <time>2018-09-10T19:11:18Z</time>
      </trkpt>
      <trkpt lat="43.59339" lon="6.84181">
        <ele>233</ele>
        <time>2018-09-10T19:12:18Z</time>
      </trkpt>
      <trkpt lat="43.59289" lon="6.84173">
        <ele>239</ele>
        <time>2018-09-10T19:13:18Z</time>
      </trkpt>
      <trkpt lat="43.59241" lon="6.84126">
        <ele>236</ele>
        <time>2018-09-10T19:14:18Z</time>
      </trkpt>
      <trkpt lat="43.59155" lon="6.84073">
        <ele>242</ele>
        <time>2018-09-10T19:15:18Z</time>
      </trkpt>
      <trkpt lat="43.59101" lon="6.84055">
        <ele>258</ele>
        <time>2018-09-10T19:16:18Z</time>
      </trkpt>
      <trkpt lat="43.59108" lon="6.84009">
        <ele>246</ele>
        <time>2018-09-10T19:17:18Z</time>
      </trkpt>
      <trkpt lat="43.59092" lon="6.83945">
        <ele>248</ele>
        <time>2018-09-10T19:18:18Z</time>
      </trkpt>
      <trkpt lat="43.59081" lon="6.83847">
        <ele>250</ele>
        <time>2018-09-10T19:19:18Z</time>
      </trkpt>
      <trkpt lat="43.59093" lon="6.83794">
        <ele>244</ele>
        <time>2018-09-10T19:20:18Z</time>
      </trkpt>
      <trkpt lat="43.59076" lon="6.83747">
        <ele>259</ele>
        <time>2018-09-10T19:21:18Z</time>
      </trkpt>
      <trkpt lat="43.59095" lon="6.83692">
        <ele>254</ele>
        <time>2018-09-10T19:22:18Z</time>
      </trkpt>
      <trkpt lat="43.59109" lon="6.83627">
        <ele>256</ele>
        <time>2018-09-10T19:23:18Z</time>
      </trkpt>
      <trkpt lat="43.59161" lon="6.8354">
        <ele>241</ele>
        <time>2018-09-10T19:24:18Z</time>
      </trkpt>
      <trkpt lat="43.59193" lon="6.83436">
        <ele>239</ele>
        <time>2018-09-10T19:25:18Z</time>
      </trkpt>
      <trkpt lat="43.59236" lon="6.83367">
        <ele>223</ele>
        <time>2018-09-10T19:26:18Z</time>
      </trkpt>
      <trkpt lat="43.59232" lon="6.83308">
        <ele>223</ele>
        <time>2018-09-10T19:27:18Z</time>
      </trkpt>
      <trkpt lat="43.59121" lon="6.83219">
        <ele>227</ele>
        <time>2018-09-10T19:28:18Z</time>
      </trkpt>
      <trkpt lat="43.5906" lon="6.83184">
        <ele>229</ele>
        <time>2018-09-10T19:29:18Z</time>
      </trkpt>
      <trkpt lat="43.59004" lon="6.83138">
        <ele>226</ele>
        <time>2018-09-10T19:30:18Z</time>
      </trkpt>
      <trkpt lat="43.58985" lon="6.83158">
        <ele>235</ele>
        <time>2018-09-10T19:31:18Z</time>
      </trkpt>
      <trkpt lat="43.58978" lon="6.83111">
        <ele>224</ele>
        <time>2018-09-10T19:32:18Z</time>
      </trkpt>
      <trkpt lat="43.58906" lon="6.83119">
        <ele>244</ele>
        <time>2018-09-10T19:33:18Z</time>
      </trkpt>
      <trkpt lat="43.58882" lon="6.82968">
        <ele>235</ele>
        <time>2018-09-10T19:34:18Z</time>
      </trkpt>
      <trkpt lat="43.58915" lon="6.82914">
        <ele>223</ele>
        <time>2018-09-10T19:35:18Z</time>
      </trkpt>
      <trkpt lat="43.58883" lon="6.82883">
        <ele>218</ele>
        <time>2018-09-10T19:36:18Z</time>
      </trkpt>
      <trkpt lat="43.58845" lon="6.82871">
        <ele>218</ele>
        <time>2018-09-10T19:37:18Z</time>
      </trkpt>
      <trkpt lat="43.58818" lon="6.8284">
        <ele>216</ele>
        <time>2018-09-10T19:38:18Z</time>
      </trkpt>
      <trkpt lat="43.58808" lon="6.82795">
        <ele>207</ele>
        <time>2018-09-10T19:39:18Z</time>
      </trkpt>
      <trkpt lat="43.58785" lon="6.82762">
        <ele>203</ele>
        <time>2018-09-10T19:40:18Z</time>
      </trkpt>
      <trkpt lat="43.5876" lon="6.82672">
        <ele>180</ele>
        <time>2018-09-10T19:41:18Z</time>
      </trkpt>
      <trkpt lat="43.5874" lon="6.82617">
        <ele>170</ele>
        <time>2018-09-10T19:42:18Z</time>
      </trkpt>
      <trkpt lat="43.58767" lon="6.82613">
        <ele>167</ele>
        <time>2018-09-10T19:43:18Z</time>
      </trkpt>
      <trkpt lat="43.58759" lon="6.8258">
        <ele>162</ele>
        <time>2018-09-10T19:44:18Z</time>
      </trkpt>
      <trkpt lat="43.58739" lon="6.82554">
        <ele>163</ele>
        <time>2018-09-10T19:45:18Z</time>
      </trkpt>
      <trkpt lat="43.58767" lon="6.82512">
        <ele>162</ele>
        <time>2018-09-10T19:46:18Z</time>
      </trkpt>
      <trkpt lat="43.58815" lon="6.82443">
        <ele>169</ele>
        <time>2018-09-10T19:47:18Z</time>
      </trkpt>
      <trkpt lat="43.58829" lon="6.82361">
        <ele>176</ele>
        <time>2018-09-10T19:48:18Z</time>
      </trkpt>
      <trkpt lat="43.58801" lon="6.82213">
        <ele>187</ele>
        <time>2018-09-10T19:49:18Z</time>
      </trkpt>
      <trkpt lat="43.58823" lon="6.82113">
        <ele>184</ele>
        <time>2018-09-10T19:50:18Z</time>
      </trkpt>
      <trkpt lat="43.5879" lon="6.82055">
        <ele>184</ele>
        <time>2018-09-10T19:51:18Z</time>
      </trkpt>
      <trkpt lat="43.5871" lon="6.82066">
        <ele>191</ele>
        <time>2018-09-10T19:52:18Z</time>
      </trkpt>
      <trkpt lat="43.58629" lon="6.82113">
        <ele>196</ele>
        <time>2018-09-10T19:53:18Z</time>
      </trkpt>
      <trkpt lat="43.58617" lon="6.82052">
        <ele>200</ele>
        <time>2018-09-10T19:54:18Z</time>
      </trkpt>
      <trkpt lat="43.58581" lon="6.82093">
        <ele>200</ele>
        <time>2018-09-10T19:55:18Z</time>
      </trkpt>
      <trkpt lat="43.58532" lon="6.82108">
        <ele>212</ele>
        <time>2018-09-10T19:56:18Z</time>
      </trkpt>
      <trkpt lat="43.58537" lon="6.82185">
        <ele>207</ele>
        <time>2018-09-10T19:57:18Z</time>
      </trkpt>
      <trkpt lat="43.58479" lon="6.82281">
        <ele>214</ele>
        <time>2018-09-10T19:58:18Z</time>
      </trkpt>
      <trkpt lat="43.58478" lon="6.82357">
        <ele>208</ele>
        <time>2018-09-10T19:59:18Z</time>
      </trkpt>
      <trkpt lat="43.58449" lon="6.82385">
        <ele>208</ele>
        <time>2018-09-10T20:00:18Z</time>
      </trkpt>
      <trkpt lat="43.58406" lon="6.82341">
        <ele>219</ele>
        <time>2018-09-10T20:01:18Z</time>
      </trkpt>
      <trkpt lat="43.5835" lon="6.82329">
        <ele>222</ele>
        <time>2018-09-10T20:02:18Z</time>
      </trkpt>
      <trkpt lat="43.58172" lon="6.82415">
        <ele>203</ele>
        <time>2018-09-10T20:03:18Z</time>
      </trkpt>
      <trkpt lat="43.58145" lon="6.82329">
        <ele>207</ele>
        <time>2018-09-10T20:04:18Z</time>
      </trkpt>
      <trkpt lat="43.5816" lon="6.82248">
        <ele>214</ele>
        <time>2018-09-10T20:05:18Z</time>
      </trkpt>
      <trkpt lat="43.57908" lon="6.82158">
        <ele>213</ele>
        <time>2018-09-10T20:06:18Z</time>
      </trkpt>
      <trkpt lat="43.57886" lon="6.82269">
        <ele>205</ele>
        <time>2018-09-10T20:07:18Z</time>
      </trkpt>
      <trkpt lat="43.57803" lon="6.82295">
        <ele>209</ele>
        <time>2018-09-10T20:08:18Z</time>
      </trkpt>
      <trkpt lat="43.57697" lon="6.82424">
        <ele>212</ele>
        <time>2018-09-10T20:09:18Z</time>
      </trkpt>
      <trkpt lat="43.57644" lon="6.82501">
        <ele>206</ele>
        <time>2018-09-10T20:10:18Z</time>
      </trkpt>
      <trkpt lat="43.57546" lon="6.82462">
        <ele>214</ele>
        <time>2018-09-10T20:11:18Z</time>
      </trkpt>
      <trkpt lat="43.57407" lon="6.82278">
        <ele>218</ele>
        <time>2018-09-10T20:12:18Z</time>
      </trkpt>
      <trkpt lat="43.5727" lon="6.82205">
        <ele>220</ele>
        <time>2018-09-10T20:13:18Z</time>
      </trkpt>
      <trkpt lat="43.57038" lon="6.82204">
        <ele>221</ele>
        <time>2018-09-10T20:14:18Z</time>
      </trkpt>
      <trkpt lat="43.5696" lon="6.8229">
        <ele>223</ele>
        <time>2018-09-10T20:15:18Z</time>
      </trkpt>
      <trkpt lat="43.56814" lon="6.82269">
        <ele>225</ele>
        <time>2018-09-10T20:16:18Z</time>
      </trkpt>
      <trkpt lat="43.56743" lon="6.82226">
        <ele>227</ele>
        <time>2018-09-10T20:17:18Z</time>
      </trkpt>
      <trkpt lat="43.56453" lon="6.82342">
        <ele>235</ele>
        <time>2018-09-10T20:18:18Z</time>
      </trkpt>
      <trkpt lat="43.56212" lon="6.82368">
        <ele>240</ele>
        <time>2018-09-10T20:19:18Z</time>
      </trkpt>
      <trkpt lat="43.5601" lon="6.82531">
        <ele>235</ele>
        <time>2018-09-10T20:20:18Z</time>
      </trkpt>
      <trkpt lat="43.55954" lon="6.82484">
        <ele>229</ele>
        <time>2018-09-10T20:21:18Z</time>
      </trkpt>
      <trkpt lat="43.55917" lon="6.82488">
        <ele>228</ele>
        <time>2018-09-10T20:22:18Z</time>
      </trkpt>
      <trkpt lat="43.55914" lon="6.82578">
        <ele>225</ele>
        <time>2018-09-10T20:23:18Z</time>
      </trkpt>
      <trkpt lat="43.55824" lon="6.82694">
        <ele>205</ele>
        <time>2018-09-10T20:24:18Z</time>
      </trkpt>
      <trkpt lat="43.55771" lon="6.82655">
        <ele>207</ele>
        <time>2018-09-10T20:25:18Z</time>
      </trkpt>
      <trkpt lat="43.55628" lon="6.8272">
        <ele>194</ele>
        <time>2018-09-10T20:26:18Z</time>
      </trkpt>
      <trkpt lat="43.5559" lon="6.82677">
        <ele>192</ele>
        <time>2018-09-10T20:27:18Z</time>
      </trkpt>
      <trkpt lat="43.55531" lon="6.82698">
        <ele>189</ele>
        <time>2018-09-10T20:28:18Z</time>
      </trkpt>
      <trkpt lat="43.55419" lon="6.82664">
        <ele>185</ele>
        <time>2018-09-10T20:29:18Z</time>
      </trkpt>
      <trkpt lat="43.55267" lon="6.82475">
        <ele>183</ele>
        <time>2018-09-10T20:30:18Z</time>
      </trkpt>
      <trkpt lat="43.55167" lon="6.82496">
        <ele>183</ele>
        <time>2018-09-10T20:31:18Z</time>
      </trkpt>
      <trkpt lat="43.5486" lon="6.82729">
        <ele>185</ele>
        <time>2018-09-10T20:32:18Z</time>
      </trkpt>
      <trkpt lat="43.54818" lon="6.82787">
        <ele>187</ele>
        <time>2018-09-10T20:33:18Z</time>
      </trkpt>
      <trkpt lat="43.5475" lon="6.82993">
        <ele>195</ele>
        <time>2018-09-10T20:34:18Z</time>
      </trkpt>
      <trkpt lat="43.54697" lon="6.8322">
        <ele>198</ele>
        <time>2018-09-10T20:35:18Z</time>
      </trkpt>
      <trkpt lat="43.54632" lon="6.83362">
        <ele>203</ele>
        <time>2018-09-10T20:36:18Z</time>
      </trkpt>
      <trkpt lat="43.54445" lon="6.83546">
        <ele>214</ele>
        <time>2018-09-10T20:37:18Z</time>
      </trkpt>
      <trkpt lat="43.54358" lon="6.83606">
        <ele>212</ele>
        <time>2018-09-10T20:38:18Z</time>
      </trkpt>
      <trkpt lat="43.54299" lon="6.83701">
        <ele>219</ele>
        <time>2018-09-10T20:39:18Z</time>
      </trkpt>
      <trkpt lat="43.54265" lon="6.83753">
        <ele>225</ele>
        <time>2018-09-10T20:40:18Z</time>
      </trkpt>
      <trkpt lat="43.54128" lon="6.83799">
        <ele>227</ele>
        <time>2018-09-10T20:41:18Z</time>
      </trkpt>
      <trkpt lat="43.54014" lon="6.83887">
        <ele>231</ele>
        <time>2018-09-10T20:42:18Z</time>
      </trkpt>
      <trkpt lat="43.53885" lon="6.84193">
        <ele>231</ele>
        <time>2018-09-10T20:43:18Z</time>
      </trkpt>
      <trkpt lat="43.53895" lon="6.84429">
        <ele>219</ele>
        <time>2018-09-10T20:44:18Z</time>
      </trkpt>
      <trkpt lat="43.53954" lon="6.84453">
        <ele>233</ele>
        <time>2018-09-10T20:45:18Z</time>
      </trkpt>
      <trkpt lat="43.53934" lon="6.84533">
        <ele>216</ele>
        <time>2018-09-10T20:46:18Z</time>
      </trkpt>
      <trkpt lat="43.53973" lon="6.84573">
        <ele>214</ele>
        <time>2018-09-10T20:47:18Z</time>
      </trkpt>
      <trkpt lat="43.54067" lon="6.84597">
        <ele>225</ele>
        <time>2018-09-10T20:48:18Z</time>
      </trkpt>
      <trkpt lat="43.54035" lon="6.84645">
        <ele>212</ele>
        <time>2018-09-10T20:49:18Z</time>
      </trkpt>
      <trkpt lat="43.54041" lon="6.84666">
        <ele>210</ele>
        <time>2018-09-10T20:50:18Z</time>
      </trkpt>
      <trkpt lat="43.53988" lon="6.84725">
        <ele>198</ele>
        <time>2018-09-10T20:51:18Z</time>
      </trkpt>
      <trkpt lat="43.53977" lon="6.84775">
        <ele>193</ele>
        <time>2018-09-10T20:52:18Z</time>
      </trkpt>
      <trkpt lat="43.54016" lon="6.84895">
        <ele>194</ele>
        <time>2018-09-10T20:53:18Z</time>
      </trkpt>
      <trkpt lat="43.54053" lon="6.84932">
        <ele>201</ele>
        <time>2018-09-10T20:54:18Z</time>
      </trkpt>
      <trkpt lat="43.54072" lon="6.85074">
        <ele>187</ele>
        <time>2018-09-10T20:55:18Z</time>
      </trkpt>
      <trkpt lat="43.54067" lon="6.85143">
        <ele>178</ele>
        <time>2018-09-10T20:56:18Z</time>
      </trkpt>
      <trkpt lat="43.54098" lon="6.85226">
        <ele>171</ele>
        <time>2018-09-10T20:57:18Z</time>
      </trkpt>
      <trkpt lat="43.54051" lon="6.8533">
        <ele>153</ele>
        <time>2018-09-10T20:58:18Z</time>
      </trkpt>
      <trkpt lat="43.54117" lon="6.85328">
        <ele>153</ele>
        <time>2018-09-10T20:59:18Z</time>
      </trkpt>
      <trkpt lat="43.54089" lon="6.85386">
        <ele>149</ele>
        <time>2018-09-10T21:00:18Z</time>
      </trkpt>
      <trkpt lat="43.54099" lon="6.85425">
        <ele>149</ele>
        <time>2018-09-10T21:01:18Z</time>
      </trkpt>
      <trkpt lat="43.54021" lon="6.85476">
        <ele>150</ele>
        <time>2018-09-10T21:02:18Z</time>
      </trkpt>
      <trkpt lat="43.54003" lon="6.85488">
        <ele>149</ele>
        <time>2018-09-10T21:03:18Z</time>
      </trkpt>
      <trkpt lat="43.53949" lon="6.8567">
        <ele>149</ele>
        <time>2018-09-10T21:04:18Z</time>
      </trkpt>
      <trkpt lat="43.53947" lon="6.85739">
        <ele>149</ele>
        <time>2018-09-10T21:05:18Z</time>
      </trkpt>
      <trkpt lat="43.5391" lon="6.85796">
        <ele>145</ele>
        <time>2018-09-10T21:06:18Z</time>
      </trkpt>
      <trkpt lat="43.53907" lon="6.85851">
        <ele>144</ele>
        <time>2018-09-10T21:07:18Z</time>
      </trkpt>
      <trkpt lat="43.5397" lon="6.85897">
        <ele>148</ele>
        <time>2018-09-10T21:08:18Z</time>
      </trkpt>
      <trkpt lat="43.54012" lon="6.86017">
        <ele>142</ele>
        <time>2018-09-10T21:09:18Z</time>
      </trkpt>
      <trkpt lat="43.53999" lon="6.86063">
        <ele>145</ele>
        <time>2018-09-10T21:10:18Z</time>
      </trkpt>
      <trkpt lat="43.53928" lon="6.86038">
        <ele>135</ele>
        <time>2018-09-10T21:11:18Z</time>
      </trkpt>
      <trkpt lat="43.53986" lon="6.86161">
        <ele>158</ele>
        <time>2018-09-10T21:12:18Z</time>
      </trkpt>
      <trkpt lat="43.54075" lon="6.86237">
        <ele>172</ele>
        <time>2018-09-10T21:13:18Z</time>
      </trkpt>
      <trkpt lat="43.54057" lon="6.86294">
        <ele>170</ele>
        <time>2018-09-10T21:14:18Z</time>
      </trkpt>
      <trkpt lat="43.53805" lon="6.86266">
        <ele>161</ele>
        <time>2018-09-10T21:15:18Z</time>
      </trkpt>
      <trkpt lat="43.53724" lon="6.86345">
        <ele>155</ele>
        <time>2018-09-10T21:16:18Z</time>
      </trkpt>
      <trkpt lat="43.53764" lon="6.86442">
        <ele>163</ele>
        <time>2018-09-10T21:17:18Z</time>
      </trkpt>
      <trkpt lat="43.53681" lon="6.86485">
        <ele>148</ele>
        <time>2018-09-10T21:18:18Z</time>
      </trkpt>
      <trkpt lat="43.53635" lon="6.86547">
        <ele>138</ele>
        <time>2018-09-10T21:19:18Z</time>
      </trkpt>
      <trkpt lat="43.53635" lon="6.86789">
        <ele>128</ele>
        <time>2018-09-10T21:20:18Z</time>
      </trkpt>
      <trkpt lat="43.53672" lon="6.86836">
        <ele>128</ele>
        <time>2018-09-10T21:21:18Z</time>
      </trkpt>
      <trkpt lat="43.5367" lon="6.86886">
        <ele>118</ele>
        <time>2018-09-10T21:22:18Z</time>
      </trkpt>
      <trkpt lat="43.53832" lon="6.86836">
        <ele>108</ele>
        <time>2018-09-10T21:23:18Z</time>
      </trkpt>
      <trkpt lat="43.53897" lon="6.86767">
        <ele>110</ele>
        <time>2018-09-10T21:24:18Z</time>
      </trkpt>
      <trkpt lat="43.53947" lon="6.86818">
        <ele>106</ele>
        <time>2018-09-10T21:25:18Z</time>
      </trkpt>
      <trkpt lat="43.53913" lon="6.86908">
        <ele>104</ele>
        <time>2018-09-10T21:26:18Z</time>
      </trkpt>
      <trkpt lat="43.5384" lon="6.86946">
        <ele>103</ele>
        <time>2018-09-10T21:27:18Z</time>
      </trkpt>
      <trkpt lat="43.53819" lon="6.87016">
        <ele>108</ele>
        <time>2018-09-10T21:28:18Z</time>
      </trkpt>
      <trkpt lat="43.53841" lon="6.8706">
        <ele>118</ele>
        <time>2018-09-10T21:29:18Z</time>
      </trkpt>
      <trkpt lat="43.53777" lon="6.87146">
        <ele>115</ele>
        <time>2018-09-10T21:30:18Z</time>
      </trkpt>
      <trkpt lat="43.53777" lon="6.87204">
        <ele>116</ele>
        <time>2018-09-10T21:31:18Z</time>
      </trkpt>
      <trkpt lat="43.53557" lon="6.87388">
        <ele>94</ele>
        <time>2018-09-10T21:32:18Z</time>
      </trkpt>
      <trkpt lat="43.53361" lon="6.87446">
        <ele>89</ele>
        <time>2018-09-10T21:33:18Z</time>
      </trkpt>
      <trkpt lat="43.5335" lon="6.87525">
        <ele>84</ele>
        <time>2018-09-10T21:34:18Z</time>
      </trkpt>
      <trkpt lat="43.53281" lon="6.87548">
        <ele>77</ele>
        <time>2018-09-10T21:35:18Z</time>
      </trkpt>
      <trkpt lat="43.53268" lon="6.87491">
        <ele>75</ele>
        <time>2018-09-10T21:36:18Z</time>
      </trkpt>
      <trkpt lat="43.53247" lon="6.87383">
        <ele>76</ele>
        <time>2018-09-10T21:37:18Z</time>
      </trkpt>
      <trkpt lat="43.53268" lon="6.87313">
        <ele>78</ele>
        <time>2018-09-10T21:38:18Z</time>
      </trkpt>
      <trkpt lat="43.53257" lon="6.87238">
        <ele>72</ele>
        <time>2018-09-10T21:39:18Z</time>
      </trkpt>
      <trkpt lat="43.53341" lon="6.87118">
        <ele>77</ele>
        <time>2018-09-10T21:40:18Z</time>
      </trkpt>
      <trkpt lat="43.53371" lon="6.86948">
        <ele>76</ele>
        <time>2018-09-10T21:41:18Z</time>
      </trkpt>
      <trkpt lat="43.53359" lon="6.8684">
        <ele>76</ele>
        <time>2018-09-10T21:42:18Z</time>
      </trkpt>
      <trkpt lat="43.53263" lon="6.86785">
        <ele>74</ele>
        <time>2018-09-10T21:43:18Z</time>
      </trkpt>
      <trkpt lat="43.53231" lon="6.8662">
        <ele>74</ele>
        <time>2018-09-10T21:44:18Z</time>
      </trkpt>
      <trkpt lat="43.53252" lon="6.86337">
        <ele>79</ele>
        <time>2018-09-10T21:45:18Z</time>
      </trkpt>
      <trkpt lat="43.53169" lon="6.86254">
        <ele>79</ele>
        <time>2018-09-10T21:46:18Z</time>
      </trkpt>
      <trkpt lat="43.53092" lon="6.86278">
        <ele>81</ele>
        <time>2018-09-10T21:47:18Z</time>
      </trkpt>
      <trkpt lat="43.52991" lon="6.86277">
        <ele>90</ele>
        <time>2018-09-10T21:48:18Z</time>
      </trkpt>
      <trkpt lat="43.52922" lon="6.86305">
        <ele>98</ele>
        <time>2018-09-10T21:49:18Z</time>
      </trkpt>
      <trkpt lat="43.5292" lon="6.8623">
        <ele>97</ele>
        <time>2018-09-10T21:50:18Z</time>
      </trkpt>
      <trkpt lat="43.52798" lon="6.86198">
        <ele>114</ele>
        <time>2018-09-10T21:51:18Z</time>
      </trkpt>
      <trkpt lat="43.52744" lon="6.86335">
        <ele>128</ele>
        <time>2018-09-10T21:52:18Z</time>
      </trkpt>
      <trkpt lat="43.52704" lon="6.86593">
        <ele>148</ele>
        <time>2018-09-10T21:53:18Z</time>
      </trkpt>
      <trkpt lat="43.52721" lon="6.86679">
        <ele>151</ele>
        <time>2018-09-10T21:54:18Z</time>
      </trkpt>
      <trkpt lat="43.52691" lon="6.86983">
        <ele>160</ele>
        <time>2018-09-10T21:55:18Z</time>
      </trkpt>
      <trkpt lat="43.52618" lon="6.87038">
        <ele>175</ele>
        <time>2018-09-10T21:56:18Z</time>
      </trkpt>
      <trkpt lat="43.52588" lon="6.87099">
        <ele>175</ele>
        <time>2018-09-10T21:57:18Z</time>
      </trkpt>
      <trkpt lat="43.52542" lon="6.87107">
        <ele>184</ele>
        <time>2018-09-10T21:58:18Z</time>
      </trkpt>
      <trkpt lat="43.52556" lon="6.87188">
        <ele>174</ele>
        <time>2018-09-10T21:59:18Z</time>
      </trkpt>
      <trkpt lat="43.52492" lon="6.87249">
        <ele>184</ele>
        <time>2018-09-10T22:00:18Z</time>
      </trkpt>
      <trkpt lat="43.52421" lon="6.87411">
        <ele>171</ele>
        <time>2018-09-10T22:01:18Z</time>
      </trkpt>
      <trkpt lat="43.52343" lon="6.87491">
        <ele>169</ele>
        <time>2018-09-10T22:02:18Z</time>
      </trkpt>
      <trkpt lat="43.5226" lon="6.8754">
        <ele>166</ele>
        <time>2018-09-10T22:03:18Z</time>
      </trkpt>
      <trkpt lat="43.52195" lon="6.87558">
        <ele>166</ele>
        <time>2018-09-10T22:04:18Z</time>
      </trkpt>
      <trkpt lat="43.5214" lon="6.87539">
        <ele>163</ele>
        <time>2018-09-10T22:05:18Z</time>
      </trkpt>
      <trkpt lat="43.52138" lon="6.87488">
        <ele>160</ele>
        <time>2018-09-10T22:06:18Z</time>
      </trkpt>
      <trkpt lat="43.52091" lon="6.87452">
        <ele>153</ele>
        <time>2018-09-10T22:07:18Z</time>
      </trkpt>
      <trkpt lat="43.52076" lon="6.87555">
        <ele>160</ele>
        <time>2018-09-10T22:08:18Z</time>
      </trkpt>
      <trkpt lat="43.52026" lon="6.87511">
        <ele>157</ele>
        <time>2018-09-10T22:09:18Z</time>
      </trkpt>
      <trkpt lat="43.52036" lon="6.8744">
        <ele>148</ele>
        <time>2018-09-10T22:10:18Z</time>
      </trkpt>
      <trkpt lat="43.51994" lon="6.8741">
        <ele>141</ele>
        <time>2018-09-10T22:11:18Z</time>
      </trkpt>
      <trkpt lat="43.51916" lon="6.87428">
        <ele>128</ele>
        <time>2018-09-10T22:12:18Z</time>
      </trkpt>
      <trkpt lat="43.51955" lon="6.87325">
        <ele>120</ele>
        <time>2018-09-10T22:13:18Z</time>
      </trkpt>
      <trkpt lat="43.5196" lon="6.873">
        <ele>118</ele>
        <time>2018-09-10T22:14:18Z</time>
      </trkpt>
      <trkpt lat="43.51954" lon="6.87251">
        <ele>111</ele>
        <time>2018-09-10T22:15:18Z</time>
      </trkpt>
      <trkpt lat="43.51913" lon="6.87207">
        <ele>105</ele>
        <time>2018-09-10T22:16:18Z</time>
      </trkpt>
      <trkpt lat="43.51877" lon="6.87197">
        <ele>112</ele>
        <time>2018-09-10T22:17:18Z</time>
      </trkpt>
      <trkpt lat="43.51842" lon="6.8731">
        <ele>113</ele>
        <time>2018-09-10T22:18:18Z</time>
      </trkpt>
      <trkpt lat="43.51752" lon="6.87476">
        <ele>105</ele>
        <time>2018-09-10T22:19:18Z</time>
      </trkpt>
      <trkpt lat="43.5177" lon="6.87517">
        <ele>107</ele>
        <time>2018-09-10T22:20:18Z</time>
      </trkpt>
      <trkpt lat="43.51715" lon="6.87505">
        <ele>114</ele>
        <time>2018-09-10T22:21:18Z</time>
      </trkpt>
      <trkpt lat="43.51678" lon="6.87487">
        <ele>121</ele>
        <time>2018-09-10T22:22:18Z</time>
      </trkpt>
      <trkpt lat="43.51709" lon="6.87435">
        <ele>113</ele>
        <time>2018-09-10T22:23:18Z</time>
      </trkpt>
      <trkpt lat="43.51628" lon="6.87356">
        <ele>136</ele>
        <time>2018-09-10T22:24:18Z</time>
      </trkpt>
      <trkpt lat="43.51654" lon="6.87317">
        <ele>134</ele>
        <time>2018-09-10T22:25:18Z</time>
      </trkpt>
      <trkpt lat="43.51628" lon="6.87306">
        <ele>142</ele>
        <time>2018-09-10T22:26:18Z</time>
      </trkpt>
      <trkpt lat="43.51581" lon="6.87349">
        <ele>148</ele>
        <time>2018-09-10T22:27:18Z</time>
      </trkpt>
      <trkpt lat="43.51573" lon="6.87397">
        <ele>146</ele>
        <time>2018-09-10T22:28:18Z</time>
      </trkpt>
      <trkpt lat="43.51544" lon="6.87446">
        <ele>153</ele>
        <time>2018-09-10T22:29:18Z</time>
      </trkpt>
      <trkpt lat="43.51504" lon="6.87455">
        <ele>165</ele>
        <time>2018-09-10T22:30:18Z</time>
      </trkpt>
      <trkpt lat="43.51523" lon="6.87511">
        <ele>159</ele>
        <time>2018-09-10T22:31:18Z</time>
      </trkpt>
      <trkpt lat="43.51514" lon="6.87601">
        <ele>168</ele>
        <time>2018-09-10T22:32:18Z</time>
      </trkpt>
      <trkpt lat="43.51531" lon="6.87652">
        <ele>166</ele>
        <time>2018-09-10T22:33:18Z</time>
      </trkpt>
      <trkpt lat="43.5151" lon="6.8771">
        <ele>177</ele>
        <time>2018-09-10T22:34:18Z</time>
      </trkpt>
      <trkpt lat="43.51542" lon="6.87737">
        <ele>170</ele>
        <time>2018-09-10T22:35:18Z</time>
      </trkpt>
      <trkpt lat="43.51536" lon="6.87795">
        <ele>177</ele>
        <time>2018-09-10T22:36:18Z</time>
      </trkpt>
      <trkpt lat="43.51571" lon="6.8789">
        <ele>181</ele>
        <time>2018-09-10T22:37:18Z</time>
      </trkpt>
      <trkpt lat="43.51588" lon="6.87998">
        <ele>189</ele>
        <time>2018-09-10T22:38:18Z</time>
      </trkpt>
      <trkpt lat="43.51613" lon="6.88333">
        <ele>205</ele>
        <time>2018-09-10T22:39:18Z</time>
      </trkpt>
      <trkpt lat="43.51553" lon="6.88323">
        <ele>216</ele>
        <time>2018-09-10T22:40:18Z</time>
      </trkpt>
      <trkpt lat="43.51482" lon="6.88285">
        <ele>225</ele>
        <time>2018-09-10T22:41:18Z</time>
      </trkpt>
      <trkpt lat="43.51395" lon="6.8827">
        <ele>231</ele>
        <time>2018-09-10T22:42:18Z</time>
      </trkpt>
      <trkpt lat="43.5139" lon="6.88442">
        <ele>232</ele>
        <time>2018-09-10T22:43:18Z</time>
      </trkpt>
      <trkpt lat="43.51359" lon="6.88489">
        <ele>235</ele>
        <time>2018-09-10T22:44:18Z</time>
      </trkpt>
      <trkpt lat="43.5135" lon="6.88549">
        <ele>229</ele>
        <time>2018-09-10T22:45:18Z</time>
      </trkpt>
      <trkpt lat="43.51267" lon="6.88538">
        <ele>236</ele>
        <time>2018-09-10T22:46:18Z</time>
      </trkpt>
      <trkpt lat="43.51263" lon="6.88594">
        <ele>225</ele>
        <time>2018-09-10T22:47:18Z</time>
      </trkpt>
      <trkpt lat="43.51197" lon="6.88545">
        <ele>228</ele>
        <time>2018-09-10T22:48:18Z</time>
      </trkpt>
      <trkpt lat="43.51199" lon="6.88442">
        <ele>245</ele>
        <time>2018-09-10T22:49:18Z</time>
      </trkpt>
      <trkpt lat="43.51148" lon="6.88278">
        <ele>260</ele>
        <time>2018-09-10T22:50:18Z</time>
      </trkpt>
      <trkpt lat="43.51" lon="6.88216">
        <ele>253</ele>
        <time>2018-09-10T22:51:18Z</time>
      </trkpt>
      <trkpt lat="43.5097" lon="6.88111">
        <ele>260</ele>
        <time>2018-09-10T22:52:18Z</time>
      </trkpt>
      <trkpt lat="43.50962" lon="6.8801">
        <ele>274</ele>
        <time>2018-09-10T22:53:18Z</time>
      </trkpt>
      <trkpt lat="43.50905" lon="6.88042">
        <ele>264</ele>
        <time>2018-09-10T22:54:18Z</time>
      </trkpt>
      <trkpt lat="43.50839" lon="6.88002">
        <ele>280</ele>
        <time>2018-09-10T22:55:18Z</time>
      </trkpt>
      <trkpt lat="43.50802" lon="6.88163">
        <ele>278</ele>
        <time>2018-09-10T22:56:18Z</time>
      </trkpt>
      <trkpt lat="43.50741" lon="6.88302">
        <ele>282</ele>
        <time>2018-09-10T22:57:18Z</time>
      </trkpt>
      <trkpt lat="43.50674" lon="6.88336">
        <ele>299</ele>
        <time>2018-09-10T22:58:18Z</time>
      </trkpt>
      <trkpt lat="43.50636" lon="6.88403">
        <ele>281</ele>
        <time>2018-09-10T22:59:18Z</time>
      </trkpt>
      <trkpt lat="43.50592" lon="6.88354">
        <ele>300</ele>
        <time>2018-09-10T23:00:18Z</time>
      </trkpt>
      <trkpt lat="43.50516" lon="6.8833">
        <ele>299</ele>
        <time>2018-09-10T23:01:18Z</time>
      </trkpt>
      <trkpt lat="43.50432" lon="6.8821">
        <ele>327</ele>
        <time>2018-09-10T23:02:18Z</time>
      </trkpt>
      <trkpt lat="43.50388" lon="6.88225">
        <ele>324</ele>
        <time>2018-09-10T23:03:18Z</time>
      </trkpt>
      <trkpt lat="43.50362" lon="6.88302">
        <ele>308</ele>
        <time>2018-09-10T23:04:18Z</time>
      </trkpt>
      <trkpt lat="43.50307" lon="6.88349">
        <ele>305</ele>
        <time>2018-09-10T23:05:18Z</time>
      </trkpt>
      <trkpt lat="43.50275" lon="6.88402">
        <ele>298</ele>
        <time>2018-09-10T23:06:18Z</time>
      </trkpt>
      <trkpt lat="43.50171" lon="6.88579">
        <ele>305</ele>
        <time>2018-09-10T23:07:18Z</time>
      </trkpt>
      <trkpt lat="43.50097" lon="6.88564">
        <ele>299</ele>
        <time>2018-09-10T23:08:18Z</time>
      </trkpt>
      <trkpt lat="43.50066" lon="6.88553">
        <ele>292</ele>
        <time>2018-09-10T23:09:18Z</time>
      </trkpt>
      <trkpt lat="43.50001" lon="6.88629">
        <ele>291</ele>
        <time>2018-09-10T23:10:18Z</time>
      </trkpt>
      <trkpt lat="43.50084" lon="6.88821">
        <ele>305</ele>
        <time>2018-09-10T23:11:18Z</time>
      </trkpt>
      <trkpt lat="43.50037" lon="6.88979">
        <ele>313</ele>
        <time>2018-09-10T23:12:18Z</time>
      </trkpt>
      <trkpt lat="43.49928" lon="6.88976">
        <ele>294</ele>
        <time>2018-09-10T23:13:18Z</time>
      </trkpt>
      <trkpt lat="43.49917" lon="6.89037">
        <ele>298</ele>
        <time>2018-09-10T23:14:18Z</time>
      </trkpt>
      <trkpt lat="43.49933" lon="6.89217">
        <ele>308</ele>
        <time>2018-09-10T23:15:18Z</time>
      </trkpt>
      <trkpt lat="43.49826" lon="6.89272">
        <ele>295</ele>
        <time>2018-09-10T23:16:18Z</time>
      </trkpt>
      <trkpt lat="43.4975" lon="6.89308">
        <ele>289</ele>
        <time>2018-09-10T23:17:18Z</time>
      </trkpt>
      <trkpt lat="43.49766" lon="6.89398">
        <ele>299</ele>
        <time>2018-09-10T23:18:18Z</time>
      </trkpt>
      <trkpt lat="43.49745" lon="6.89438">
        <ele>296</ele>
        <time>2018-09-10T23:19:18Z</time>
      </trkpt>
      <trkpt lat="43.4965" lon="6.89506">
        <ele>284</ele>
        <time>2018-09-10T23:20:18Z</time>
      </trkpt>
      <trkpt lat="43.49719" lon="6.89712">
        <ele>290</ele>
        <time>2018-09-10T23:21:18Z</time>
      </trkpt>
      <trkpt lat="43.497" lon="6.89802">
        <ele>282</ele>
        <time>2018-09-10T23:22:18Z</time>
      </trkpt>
      <trkpt lat="43.49616" lon="6.89842">
        <ele>275</ele>
        <time>2018-09-10T23:23:18Z</time>
      </trkpt>
      <trkpt lat="43.49512" lon="6.89853">
        <ele>267</ele>
        <time>2018-09-10T23:24:18Z</time>
      </trkpt>
      <trkpt lat="43.49402" lon="6.90004">
        <ele>268</ele>
        <time>2018-09-10T23:25:18Z</time>
      </trkpt>
      <trkpt lat="43.49504" lon="6.90286">
        <ele>248</ele>
        <time>2018-09-10T23:26:18Z</time>
      </trkpt>
      <trkpt lat="43.49488" lon="6.90412">
        <ele>238</ele>
        <time>2018-09-10T23:27:18Z</time>
      </trkpt>
      <trkpt lat="43.49521" lon="6.90424">
        <ele>236</ele>
        <time>2018-09-10T23:28:18Z</time>
      </trkpt>
      <trkpt lat="43.49504" lon="6.90565">
        <ele>253</ele>
        <time>2018-09-10T23:29:18Z</time>
      </trkpt>
      <trkpt lat="43.49541" lon="6.90632">
        <ele>255</ele>
        <time>2018-09-10T23:30:18Z</time>
      </trkpt>
      <trkpt lat="43.49671" lon="6.90776">
        <ele>244</ele>
        <time>2018-09-10T23:31:18Z</time>
      </trkpt>
      <trkpt lat="43.49713" lon="6.90968">
        <ele>240</ele>
        <time>2018-09-10T23:32:18Z</time>
      </trkpt>
      <trkpt lat="43.49688" lon="6.9101">
        <ele>251</ele>
        <time>2018-09-10T23:33:18Z</time>
      </trkpt>
      <trkpt lat="43.49714" lon="6.91231">
        <ele>259</ele>
        <time>2018-09-10T23:34:18Z</time>
      </trkpt>
      <trkpt lat="43.49793" lon="6.91299">
        <ele>245</ele>
        <time>2018-09-10T23:35:18Z</time>
      </trkpt>
      <trkpt lat="43.49829" lon="6.91386">
        <ele>251</ele>
        <time>2018-09-10T23:36:18Z</time>
      </trkpt>
      <trkpt lat="43.49905" lon="6.91483">
        <ele>240</ele>
        <time>2018-09-10T23:37:18Z</time>
      </trkpt>
      <trkpt lat="43.49874" lon="6.91591">
        <ele>233</ele>
        <time>2018-09-10T23:38:18Z</time>
      </trkpt>
      <trkpt lat="43.49819" lon="6.91573">
        <ele>247</ele>
        <time>2018-09-10T23:39:18Z</time>
      </trkpt>
      <trkpt lat="43.49722" lon="6.91552">
        <ele>258</ele>
        <time>2018-09-10T23:40:18Z</time>
      </trkpt>
      <trkpt lat="43.49656" lon="6.91682">
        <ele>248</ele>
        <time>2018-09-10T23:41:18Z</time>
      </trkpt>
      <trkpt lat="43.49641" lon="6.91768">
        <ele>242</ele>
        <time>2018-09-10T23:42:18Z</time>
      </trkpt>
      <trkpt lat="43.49735" lon="6.91992">
        <ele>229</ele>
        <time>2018-09-10T23:43:18Z</time>
      </trkpt>
      <trkpt lat="43.49816" lon="6.92201">
        <ele>229</ele>
        <time>2018-09-10T23:44:18Z</time>
      </trkpt>
      <trkpt lat="43.49908" lon="6.92551">
        <ele>234</ele>
        <time>2018-09-10T23:45:18Z</time>
      </trkpt>
      <trkpt lat="43.4995" lon="6.92688">
        <ele>225</ele>
        <time>2018-09-10T23:46:18Z</time>
      </trkpt>
      <trkpt lat="43.5" lon="6.92735">
        <ele>233</ele>
        <time>2018-09-10T23:47:18Z</time>
      </trkpt>
      <trkpt lat="43.50016" lon="6.92865">
        <ele>210</ele>
        <time>2018-09-10T23:48:18Z</time>
      </trkpt>
      <trkpt lat="43.50018" lon="6.93059">
        <ele>189</ele>
        <time>2018-09-10T23:49:18Z</time>
      </trkpt>
      <trkpt lat="43.50068" lon="6.93164">
        <ele>188</ele>
        <time>2018-09-10T23:50:18Z</time>
      </trkpt>
      <trkpt lat="43.50128" lon="6.93179">
        <ele>187</ele>
        <time>2018-09-10T23:51:18Z</time>
      </trkpt>
      <trkpt lat="43.50233" lon="6.93327">
        <ele>151</ele>
        <time>2018-09-10T23:52:18Z</time>
      </trkpt>
      <trkpt lat="43.50306" lon="6.93337">
        <ele>125</ele>
        <time>2018-09-10T23:53:18Z</time>
      </trkpt>
      <trkpt lat="43.50369" lon="6.93471">
        <ele>99</ele>
        <time>2018-09-10T23:54:18Z</time>
      </trkpt>
      <trkpt lat="43.50498" lon="6.93558">
        <ele>89</ele>
        <time>2018-09-10T23:55:18Z</time>
      </trkpt>
      <trkpt lat="43.50522" lon="6.93586">
        <ele>86</ele>
        <time>2018-09-10T23:56:18Z</time>
      </trkpt>
      <trkpt lat="43.50593" lon="6.93601">
        <ele>75</ele>
        <time>2018-09-10T23:57:18Z</time>
      </trkpt>
      <trkpt lat="43.5065" lon="6.93694">
        <ele>54</ele>
        <time>2018-09-10T23:58:18Z</time>
      </trkpt>
      <trkpt lat="43.50708" lon="6.93757">
        <ele>37</ele>
        <time>2018-09-10T23:59:18Z</time>
      </trkpt>
      <trkpt lat="43.50724" lon="6.93758">
        <ele>34</ele>
        <time>2018-09-11T00:00:18Z</time>
      </trkpt>
      <trkpt lat="43.5074" lon="6.93741">
        <ele>30</ele>
        <time>2018-09-11T00:01:18Z</time>
      </trkpt>
      <trkpt lat="43.50753" lon="6.93749">
        <ele>28</ele>
        <time>2018-09-11T00:02:18Z</time>
      </trkpt>
      <trkpt lat="43.5076" lon="6.93724">
        <ele>25</ele>
        <time>2018-09-11T00:03:18Z</time>
      </trkpt>
      <trkpt lat="43.50791" lon="6.93717">
        <ele>21</ele>
        <time>2018-09-11T00:04:18Z</time>
      </trkpt>
      <trkpt lat="43.50829" lon="6.93775">
        <ele>14</ele>
        <time>2018-09-11T00:05:18Z</time>
      </trkpt>
      <trkpt lat="43.50864" lon="6.93822">
        <ele>7</ele>
        <time>2018-09-11T00:06:18Z</time>
      </trkpt>
      <trkpt lat="43.5092" lon="6.93775">
        <ele>8</ele>
        <time>2018-09-11T00:07:18Z</time>
      </trkpt>
    </trkseg>
  </trk>
</gpx>